1021 UTC 05 March 2015 found at http://aviationweather.gov/adds/metars/
 
METAR text: KAFF 050958Z AUTO 01009KT 10SM CLR M19/M22 A3016 RMK AO2 SLP324 T11921218
Conditions at: KAFF (USAF ACADEMY/COS, CO, US) observed 0958 UTC 05 March 2015
Temperature: -19.2°C (-3°F)
Dewpoint: -21.8°C (-7°F) [RH = 80%]
Pressure (altimeter): 30.16 inches Hg (1021.4 mb[Sea-level pressure: 1032.4 mb]
Winds: from the N (10 degrees) at 10 MPH (9 knots; 4.7 m/s)
Visibility: 10 or more miles (16+ km)
Ceiling: at least 12,000 feet AGL
Clouds: sky clear below 12,000 feet AGL
Weather: automated observation with no human augmentation;
there may or may not be significant weather present at this time

METAR text: KAFF 050948Z AUTO 02010KT 8SM CLR M19/M22 A3016 RMK AO2
Conditions at: KAFF (USAF ACADEMY/COS, CO, US) observed 0948 UTC 05 March 2015
Temperature: -19.0°C (-2°F)
Dewpoint: -22.0°C (-8°F) [RH = 77%]
Pressure (altimeter): 30.16 inches Hg (1021.4 mb)
Winds: from the NNE (20 degrees) at 12 MPH (10 knots; 5.2 m/s)
Visibility: 8 miles (13 km)
Ceiling: at least 12,000 feet AGL
Clouds: sky clear below 12,000 feet AGL
Weather: automated observation with no human augmentation;
there may or may not be significant weather present at this time

METAR text: KAFF 050943Z AUTO 02011KT 3SM M FEW001 M19/M22 A3017 RMK AO2 $
Conditions at: KAFF (USAF ACADEMY/COS, CO, US) observed 0943 UTC 05 March 2015
Temperature: -19.0°C (-2°F)
Dewpoint: -22.0°C (-8°F) [RH = 77%]
Pressure (altimeter): 30.17 inches Hg (1021.8 mb)
Winds: from the NNE (20 degrees) at 13 MPH (11 knots; 5.7 m/s)
Visibility: 3 miles (5 km)
Ceiling: at least 12,000 feet AGL
Clouds: few clouds at 100 feet AGL
Weather:
SOME DATA ABOVE MAY BE INACCURATE!!!
"$" is an indication the sensor requires maintenance

METAR text: KAFF 050933Z AUTO 01011KT 1 3/4SM M SCT001 M19/M22 A3017 RMK AO2 VIS 1 3/4V3 $
Conditions at: KAFF (USAF ACADEMY/COS, CO, US) observed 0933 UTC 05 March 2015
Temperature: -19.0°C (-2°F)
Dewpoint: -22.0°C (-8°F) [RH = 77%]
Pressure (altimeter): 30.17 inches Hg (1021.8 mb)
Winds: from the N (10 degrees) at 13 MPH (11 knots; 5.7 m/s)
Visibility: 1.75 miles (2.82 km)
Ceiling: at least 12,000 feet AGL
Clouds: scattered clouds at 100 feet AGL
Weather:
SOME DATA ABOVE MAY BE INACCURATE!!!
"$" is an indication the sensor requires maintenance

METAR text: KAFF 050928Z AUTO 01010KT 1 3/4SM M BKN001 M19/M21 A3017 RMK AO2 VIS 1 3/4V9 $
Conditions at: KAFF (USAF ACADEMY/COS, CO, US) observed 0928 UTC 05 March 2015
Temperature: -19.0°C (-2°F)
Dewpoint: -21.0°C (-6°F) [RH = 84%]
Pressure (altimeter): 30.17 inches Hg (1021.8 mb)
Winds: from the N (10 degrees) at 12 MPH (10 knots; 5.2 m/s)
Visibility: 1.75 miles (2.82 km)
Ceiling: 100 feet AGL
Clouds: broken clouds at 100 feet AGL
Weather:
SOME DATA ABOVE MAY BE INACCURATE!!!
"$" is an indication the sensor requires maintenance

METAR text: KAFF 050923Z AUTO 36011KT 3SM M BKN001 M19/M21 A3017 RMK AO2 $
Conditions at: KAFF (USAF ACADEMY/COS, CO, US) observed 0923 UTC 05 March 2015
Temperature: -19.0°C (-2°F)
Dewpoint: -21.0°C (-6°F) [RH = 84%]
Pressure (altimeter): 30.17 inches Hg (1021.8 mb)
Winds: from the N (360 degrees) at 13 MPH (11 knots; 5.7 m/s)
Visibility: 3 miles (5 km)
Ceiling: 100 feet AGL
Clouds: broken clouds at 100 feet AGL
Weather:
SOME DATA ABOVE MAY BE INACCURATE!!!
"$" is an indication the sensor requires maintenance

METAR text: KAFF 050903Z AUTO 01010KT 10SM BKN001 M20/M23 A3017 RMK AO2
Conditions at: KAFF (USAF ACADEMY/COS, CO, US) observed 0903 UTC 05 March 2015
Temperature: -20.0°C (-4°F)
Dewpoint: -23.0°C (-9°F) [RH = 77%]
Pressure (altimeter): 30.17 inches Hg (1021.8 mb)
Winds: from the N (10 degrees) at 12 MPH (10 knots; 5.2 m/s)
Visibility: 10 or more miles (16+ km)
Ceiling: 100 feet AGL
Clouds: broken clouds at 100 feet AGL
Weather: automated observation with no human augmentation;
there may or may not be significant weather present at this time

METAR text: KAFF 050858Z AUTO 01008KT 10SM SCT002 M20/M23 A3018 RMK AO2 SNB0759E10FZRAB10E40 SLP338 P0000 60000 T12051233 57006
Conditions at: KAFF (USAF ACADEMY/COS, CO, US) observed 0858 UTC 05 March 2015
Temperature: -20.5°C (-5°F)
Dewpoint: -23.3°C (-10°F) [RH = 78%]
Pressure (altimeter): 30.18 inches Hg (1022.1 mb[Sea-level pressure: 1033.8 mb]
Winds: from the N (10 degrees) at 9 MPH (8 knots; 4.2 m/s)
Visibility: 10 or more miles (16+ km)
Ceiling: at least 12,000 feet AGL
Clouds: scattered clouds at 200 feet AGL
Weather: automated observation with no human augmentation;
there may or may not be significant weather present at this time

METAR text: KAFF 050850Z AUTO 01010KT 10SM SCT002 M20/M23 A3018 RMK AO2 SNB0759E10FZRAB10E40
Conditions at: KAFF (USAF ACADEMY/COS, CO, US) observed 0850 UTC 05 March 2015
Temperature: -20.0°C (-4°F)
Dewpoint: -23.0°C (-9°F) [RH = 77%]
Pressure (altimeter): 30.18 inches Hg (1022.1 mb)
Winds: from the N (10 degrees) at 12 MPH (10 knots; 5.2 m/s)
Visibility: 10 or more miles (16+ km)
Ceiling: at least 12,000 feet AGL
Clouds: scattered clouds at 200 feet AGL
Weather: automated observation with no human augmentation;
there may or may not be significant weather present at this time

METAR text: KAFF 050840Z AUTO 36009KT 10SM BKN002 M20/M22 A3018 RMK AO2 SNB0759E10FZRAB10E40 BKN V OVC
Conditions at: KAFF (USAF ACADEMY/COS, CO, US) observed 0840 UTC 05 March 2015
Temperature: -20.0°C (-4°F)
Dewpoint: -22.0°C (-8°F) [RH = 84%]
Pressure (altimeter): 30.18 inches Hg (1022.1 mb)
Winds: from the N (360 degrees) at 10 MPH (9 knots; 4.7 m/s)
Visibility: 10 or more miles (16+ km)
Ceiling: 200 feet AGL
Clouds: broken clouds at 200 feet AGL
Weather: automated observation with no human augmentation;
there may or may not be significant weather present at this time

METAR text: KAFF 050810Z AUTO 01009KT 10SM -FZRA OVC002 M18/M20 A3019 RMK AO2 SNB0759E10FZRAB10
Conditions at: KAFF (USAF ACADEMY/COS, CO, US) observed 0810 UTC 05 March 2015
Temperature: -18.0°C (-0°F)
Dewpoint: -20.0°C (-4°F) [RH = 84%]
Pressure (altimeter): 30.19 inches Hg (1022.4 mb)
Winds: from the N (10 degrees) at 10 MPH (9 knots; 4.7 m/s)
Visibility: 10 or more miles (16+ km)
Ceiling: 200 feet AGL
Clouds: overcast cloud deck at 200 feet AGL
Weather: -FZRA  (light freezing rain)

METAR text: KAFF 050759Z AUTO 36007KT 10SM -SN OVC002 M19/M21 A3019 RMK AO2 SNB59
Conditions at: KAFF (USAF ACADEMY/COS, CO, US) observed 0759 UTC 05 March 2015
Temperature: -19.0°C (-2°F)
Dewpoint: -21.0°C (-6°F) [RH = 84%]
Pressure (altimeter): 30.19 inches Hg (1022.4 mb)
Winds: from the N (360 degrees) at 8 MPH (7 knots; 3.6 m/s)
Visibility: 10 or more miles (16+ km)
Ceiling: 200 feet AGL
Clouds: overcast cloud deck at 200 feet AGL
Weather: -SN  (light snow)

METAR text: KAFF 050758Z AUTO 36008KT 10SM OVC002 M19/M21 A3019 RMK AO2 SNE12FZDZB13E21SNB21E54 SLP335 P0000 T11881214
Conditions at: KAFF (USAF ACADEMY/COS, CO, US) observed 0758 UTC 05 March 2015
Temperature: -18.8°C (-2°F)
Dewpoint: -21.4°C (-7°F) [RH = 80%]
Pressure (altimeter): 30.19 inches Hg (1022.4 mb[Sea-level pressure: 1033.5 mb]
Winds: from the N (360 degrees) at 9 MPH (8 knots; 4.2 m/s)
Visibility: 10 or more miles (16+ km)
Ceiling: 200 feet AGL
Clouds: overcast cloud deck at 200 feet AGL
Weather: automated observation with no human augmentation;
there may or may not be significant weather present at this time

METAR text: KAFF 050754Z AUTO 36008KT 10SM OVC002 M19/M21 A3018 RMK AO2 SNE12FZDZB13E21SNB21E54
Conditions at: KAFF (USAF ACADEMY/COS, CO, US) observed 0754 UTC 05 March 2015
Temperature: -19.0°C (-2°F)
Dewpoint: -21.0°C (-6°F) [RH = 84%]
Pressure (altimeter): 30.18 inches Hg (1022.1 mb)
Winds: from the N (360 degrees) at 9 MPH (8 knots; 4.2 m/s)
Visibility: 10 or more miles (16+ km)
Ceiling: 200 feet AGL
Clouds: overcast cloud deck at 200 feet AGL
Weather: automated observation with no human augmentation;
there may or may not be significant weather present at this time

METAR text: KAFF 050721Z AUTO 28002KT 5SM -SN OVC001 M17/M19 A3018 RMK AO2 SNE12FZDZB13E21SNB21
Conditions at: KAFF (USAF ACADEMY/COS, CO, US) observed 0721 UTC 05 March 2015
Temperature: -17.0°C (1°F)
Dewpoint: -19.0°C (-2°F) [RH = 84%]
Pressure (altimeter): 30.18 inches Hg (1022.1 mb)
Winds: from the W (280 degrees) at 2 MPH (2 knots; 1.0 m/s)
Visibility: 5 miles (8 km)
Ceiling: 100 feet AGL
Clouds: overcast cloud deck at 100 feet AGL
Weather: -SN  (light snow)

METAR text: KAFF 050713Z AUTO 26003KT 5SM -FZDZ OVC002 M16/M18 A3018 RMK AO2 SNE12FZDZB13
Conditions at: KAFF (USAF ACADEMY/COS, CO, US) observed 0713 UTC 05 March 2015
Temperature: -16.0°C (3°F)
Dewpoint: -18.0°C (-0°F) [RH = 85%]
Pressure (altimeter): 30.18 inches Hg (1022.1 mb)
Winds: from the W (260 degrees) at 3 MPH (3 knots; 1.6 m/s)
Visibility: 5 miles (8 km)
Ceiling: 200 feet AGL
Clouds: overcast cloud deck at 200 feet AGL
Weather: -FZDZ  (light freezing drizzle)

METAR text: KAFF 050712Z AUTO 26003KT 5SM HZ OVC002 M16/M18 A3019 RMK AO2 SNE12
Conditions at: KAFF (USAF ACADEMY/COS, CO, US) observed 0712 UTC 05 March 2015
Temperature: -16.0°C (3°F)
Dewpoint: -18.0°C (-0°F) [RH = 85%]
Pressure (altimeter): 30.19 inches Hg (1022.4 mb)
Winds: from the W (260 degrees) at 3 MPH (3 knots; 1.6 m/s)
Visibility: 5 miles (8 km)
Ceiling: 200 feet AGL
Clouds: overcast cloud deck at 200 feet AGL
Weather: HZ  (haze)

METAR text: KAFF 050658Z AUTO 21001KT 6SM -SN BR OVC001 M14/M16 A3019 RMK AO2 SNB13 SLP317 P0000 T11441163 410811145
Conditions at: KAFF (USAF ACADEMY/COS, CO, US) observed 0658 UTC 05 March 2015
Temperature: -14.4°C (6°F)
Dewpoint: -16.3°C (3°F) [RH = 85%]
Pressure (altimeter): 30.19 inches Hg (1022.4 mb[Sea-level pressure: 1031.7 mb]
Winds: from the SSW (210 degrees) at 1 MPH (1 knots; 0.5 m/s)
Visibility: 6 miles (10 km)
Ceiling: 100 feet AGL
Clouds: overcast cloud deck at 100 feet AGL
Weather: -SN BR  (light snow, mist)

METAR text: KAFF 050653Z AUTO 19002KT 4SM -SN BR OVC001 M14/M16 A3019 RMK AO2 SNB13
Conditions at: KAFF (USAF ACADEMY/COS, CO, US) observed 0653 UTC 05 March 2015
Temperature: -14.0°C (7°F)
Dewpoint: -16.0°C (3°F) [RH = 85%]
Pressure (altimeter): 30.19 inches Hg (1022.4 mb)
Winds: from the S (190 degrees) at 2 MPH (2 knots; 1.0 m/s)
Visibility: 4 miles (6 km)
Ceiling: 100 feet AGL
Clouds: overcast cloud deck at 100 feet AGL
Weather: -SN BR  (light snow, mist)

METAR text: KAFF 050613Z AUTO 19002KT 8SM -SN BKN002 OVC009 M13/M15 A3020 RMK AO2 SNB13 CIG 002V009 BKN V SCT
Conditions at: KAFF (USAF ACADEMY/COS, CO, US) observed 0613 UTC 05 March 2015
Temperature: -13.0°C (9°F)
Dewpoint: -15.0°C (5°F) [RH = 85%]
Pressure (altimeter): 30.20 inches Hg (1022.8 mb)
Winds: from the S (190 degrees) at 2 MPH (2 knots; 1.0 m/s)
Visibility: 8 miles (13 km)
Ceiling: 200 feet AGL
Clouds: broken clouds at 200 feet AGL
overcast cloud deck at 900 feet AGL
Weather: -SN  (light snow)

METAR text: KAFF 050603Z AUTO 18002KT 10SM SCT002 OVC008 M13/M15 A3020 RMK AO2 CIG 002V008
Conditions at: KAFF (USAF ACADEMY/COS, CO, US) observed 0603 UTC 05 March 2015
Temperature: -13.0°C (9°F)
Dewpoint: -15.0°C (5°F) [RH = 85%]
Pressure (altimeter): 30.20 inches Hg (1022.8 mb)
Winds: from the S (180 degrees) at 2 MPH (2 knots; 1.0 m/s)
Visibility: 10 or more miles (16+ km)
Ceiling: 800 feet AGL
Clouds: scattered clouds at 200 feet AGL
overcast cloud deck at 800 feet AGL
Weather: automated observation with no human augmentation;
there may or may not be significant weather present at this time

METAR text: KAFF 050558Z AUTO 09001KT 10SM BKN002 OVC009 M13/M15 A3020 RMK AO2 SNB03E49 BKN V OVC SLP315 P0000 60000 T11291152 11112 21133 50009
Conditions at: KAFF (USAF ACADEMY/COS, CO, US) observed 0558 UTC 05 March 2015
Temperature: -12.9°C (9°F)
Dewpoint: -15.2°C (5°F) [RH = 83%]
Pressure (altimeter): 30.20 inches Hg (1022.8 mb[Sea-level pressure: 1031.5 mb]
Winds: from the E (90 degrees) at 1 MPH (1 knots; 0.5 m/s)
Visibility: 10 or more miles (16+ km)
Ceiling: 200 feet AGL
Clouds: broken clouds at 200 feet AGL
overcast cloud deck at 900 feet AGL
Weather: automated observation with no human augmentation;
there may or may not be significant weather present at this time

METAR text: KAFF 050549Z AUTO 18004KT 9SM OVC002 M13/M15 A3020 RMK AO2 SNB03E49
Conditions at: KAFF (USAF ACADEMY/COS, CO, US) observed 0549 UTC 05 March 2015
Temperature: -13.0°C (9°F)
Dewpoint: -15.0°C (5°F) [RH = 85%]
Pressure (altimeter): 30.20 inches Hg (1022.8 mb)
Winds: from the S (180 degrees) at 5 MPH (4 knots; 2.1 m/s)
Visibility: 9 miles (14 km)
Ceiling: 200 feet AGL
Clouds: overcast cloud deck at 200 feet AGL
Weather: automated observation with no human augmentation;
there may or may not be significant weather present at this time

METAR text: KAFF 050503Z AUTO 15004KT 7SM -SN BKN002 OVC011 M13/M15 A3020 RMK AO2 SNB03
Conditions at: KAFF (USAF ACADEMY/COS, CO, US) observed 0503 UTC 05 March 2015
Temperature: -13.0°C (9°F)
Dewpoint: -15.0°C (5°F) [RH = 85%]
Pressure (altimeter): 30.20 inches Hg (1022.8 mb)
Winds: from the SSE (150 degrees) at 5 MPH (4 knots; 2.1 m/s)
Visibility: 7 miles (11 km)
Ceiling: 200 feet AGL
Clouds: broken clouds at 200 feet AGL
overcast cloud deck at 1100 feet AGL
Weather: -SN  (light snow)

METAR text: KAFF 050458Z AUTO 16004KT 8SM BKN002 OVC010 M12/M15 A3020 RMK AO2 SNE26 SLP321 P0000 T11251152
Conditions at: KAFF (USAF ACADEMY/COS, CO, US) observed 0458 UTC 05 March 2015
Temperature: -12.5°C (10°F)
Dewpoint: -15.2°C (5°F) [RH = 80%]
Pressure (altimeter): 30.20 inches Hg (1022.8 mb[Sea-level pressure: 1032.1 mb]
Winds: from the SSE (160 degrees) at 5 MPH (4 knots; 2.1 m/s)
Visibility: 8 miles (13 km)
Ceiling: 200 feet AGL
Clouds: broken clouds at 200 feet AGL
overcast cloud deck at 1000 feet AGL
Weather: automated observation with no human augmentation;
there may or may not be significant weather present at this time

METAR text: KAFF 050426Z AUTO 15007KT 8SM OVC002 M12/M15 A3020 RMK AO2 SNE26
Conditions at: KAFF (USAF ACADEMY/COS, CO, US) observed 0426 UTC 05 March 2015
Temperature: -12.0°C (10°F)
Dewpoint: -15.0°C (5°F) [RH = 78%]
Pressure (altimeter): 30.20 inches Hg (1022.8 mb)
Winds: from the SSE (150 degrees) at 8 MPH (7 knots; 3.6 m/s)
Visibility: 8 miles (13 km)
Ceiling: 200 feet AGL
Clouds: overcast cloud deck at 200 feet AGL
Weather: automated observation with no human augmentation;
there may or may not be significant weather present at this time

METAR text: KAFF 050358Z AUTO 16004KT 6SM -SN OVC002 M12/M14 A3019 RMK AO2 SLP317 P0000 T11231145
Conditions at: KAFF (USAF ACADEMY/COS, CO, US) observed 0358 UTC 05 March 2015
Temperature: -12.3°C (10°F)
Dewpoint: -14.5°C (6°F) [RH = 84%]
Pressure (altimeter): 30.19 inches Hg (1022.4 mb[Sea-level pressure: 1031.7 mb]
Winds: from the SSE (160 degrees) at 5 MPH (4 knots; 2.1 m/s)
Visibility: 6 miles (10 km)
Ceiling: 200 feet AGL
Clouds: overcast cloud deck at 200 feet AGL
Weather: -SN  (light snow)

METAR text: KAFF 050258Z AUTO 16010KT 8SM -SN BKN002 OVC014 M12/M14 A3016 RMK AO2 SNB13 SLP307 P0000 60000 T11211141 52025
Conditions at: KAFF (USAF ACADEMY/COS, CO, US) observed 0258 UTC 05 March 2015
Temperature: -12.1°C (10°F)
Dewpoint: -14.1°C (7°F) [RH = 85%]
Pressure (altimeter): 30.16 inches Hg (1021.4 mb[Sea-level pressure: 1030.7 mb]
Winds: from the SSE (160 degrees) at 12 MPH (10 knots; 5.2 m/s)
Visibility: 8 miles (13 km)
Ceiling: 200 feet AGL
Clouds: broken clouds at 200 feet AGL
overcast cloud deck at 1400 feet AGL
Weather: -SN  (light snow)

METAR text: KAFF 050213Z AUTO 16008KT 10SM -SN OVC002 M12/M14 A3015 RMK AO2 SNB13 OVC V BKN
Conditions at: KAFF (USAF ACADEMY/COS, CO, US) observed 0213 UTC 05 March 2015
Temperature: -12.0°C (10°F)
Dewpoint: -14.0°C (7°F) [RH = 85%]
Pressure (altimeter): 30.15 inches Hg (1021.1 mb)
Winds: from the SSE (160 degrees) at 9 MPH (8 knots; 4.2 m/s)
Visibility: 10 or more miles (16+ km)
Ceiling: 200 feet AGL
Clouds: overcast cloud deck at 200 feet AGL
Weather: -SN  (light snow)

METAR text: KAFF 050158Z AUTO 17007KT 10SM BKN002 OVC017 M12/M14 A3014 RMK AO2 SNE54 BKN V OVC SLP299 P0000 T11201141
Conditions at: KAFF (USAF ACADEMY/COS, CO, US) observed 0158 UTC 05 March 2015
Temperature: -12.0°C (10°F)
Dewpoint: -14.1°C (7°F) [RH = 84%]
Pressure (altimeter): 30.14 inches Hg (1020.7 mb[Sea-level pressure: 1029.9 mb]
Winds: from the S (170 degrees) at 8 MPH (7 knots; 3.6 m/s)
Visibility: 10 or more miles (16+ km)
Ceiling: 200 feet AGL
Clouds: broken clouds at 200 feet AGL
overcast cloud deck at 1700 feet AGL
Weather: automated observation with no human augmentation;
there may or may not be significant weather present at this time

METAR text: KAFF 050154Z AUTO 17007KT 10SM OVC002 M12/M14 A3014 RMK AO2 SNE54 OVC V BKN
Conditions at: KAFF (USAF ACADEMY/COS, CO, US) observed 0154 UTC 05 March 2015
Temperature: -12.0°C (10°F)
Dewpoint: -14.0°C (7°F) [RH = 85%]
Pressure (altimeter): 30.14 inches Hg (1020.7 mb)
Winds: from the S (170 degrees) at 8 MPH (7 knots; 3.6 m/s)
Visibility: 10 or more miles (16+ km)
Ceiling: 200 feet AGL
Clouds: overcast cloud deck at 200 feet AGL
Weather: automated observation with no human augmentation;
there may or may not be significant weather present at this time

METAR text: KAFF 050118Z AUTO 17006KT 5SM -SN BR OVC002 M12/M14 A3012 RMK AO2
Conditions at: KAFF (USAF ACADEMY/COS, CO, US) observed 0118 UTC 05 March 2015
Temperature: -12.0°C (10°F)
Dewpoint: -14.0°C (7°F) [RH = 85%]
Pressure (altimeter): 30.12 inches Hg (1020.1 mb)
Winds: from the S (170 degrees) at 7 MPH (6 knots; 3.1 m/s)
Visibility: 5 miles (8 km)
Ceiling: 200 feet AGL
Clouds: overcast cloud deck at 200 feet AGL
Weather: -SN BR  (light snow, mist)

METAR text: KAFF 050108Z AUTO 18005KT 4SM -SN BR OVC002 M12/M14 A3011 RMK AO2
Conditions at: KAFF (USAF ACADEMY/COS, CO, US) observed 0108 UTC 05 March 2015
Temperature: -12.0°C (10°F)
Dewpoint: -14.0°C (7°F) [RH = 85%]
Pressure (altimeter): 30.11 inches Hg (1019.7 mb)
Winds: from the S (180 degrees) at 6 MPH (5 knots; 2.6 m/s)
Visibility: 4 miles (6 km)
Ceiling: 200 feet AGL
Clouds: overcast cloud deck at 200 feet AGL
Weather: -SN BR  (light snow, mist)

METAR text: KAFF 050058Z AUTO 19005KT 5SM -SN BR OVC002 M12/M14 A3011 RMK AO2 SNB18 SLP289 P0000 T11201142
Conditions at: KAFF (USAF ACADEMY/COS, CO, US) observed 0058 UTC 05 March 2015
Temperature: -12.0°C (10°F)
Dewpoint: -14.2°C (6°F) [RH = 84%]
Pressure (altimeter): 30.11 inches Hg (1019.7 mb[Sea-level pressure: 1028.9 mb]
Winds: from the S (190 degrees) at 6 MPH (5 knots; 2.6 m/s)
Visibility: 5 miles (8 km)
Ceiling: 200 feet AGL
Clouds: overcast cloud deck at 200 feet AGL
Weather: -SN BR  (light snow, mist)

METAR text: KAFF 050023Z AUTO 21006KT 7SM -SN BKN002 OVC013 M11/M14 A3009 RMK AO2 SNB18 CIG 002V016 BKN V SCT
Conditions at: KAFF (USAF ACADEMY/COS, CO, US) observed 0023 UTC 05 March 2015
Temperature: -11.0°C (12°F)
Dewpoint: -14.0°C (7°F) [RH = 78%]
Pressure (altimeter): 30.09 inches Hg (1019.0 mb)
Winds: from the SSW (210 degrees) at 7 MPH (6 knots; 3.1 m/s)
Visibility: 7 miles (11 km)
Ceiling: 200 feet AGL
Clouds: broken clouds at 200 feet AGL
overcast cloud deck at 1300 feet AGL
Weather: -SN  (light snow)

METAR text: KAFF 050018Z AUTO 20004KT 8SM -SN SCT002 BKN013 OVC027 M11/M14 A3008 RMK AO2 SNB18 CIG 012V016
Conditions at: KAFF (USAF ACADEMY/COS, CO, US) observed 0018 UTC 05 March 2015
Temperature: -11.0°C (12°F)
Dewpoint: -14.0°C (7°F) [RH = 78%]
Pressure (altimeter): 30.08 inches Hg (1018.7 mb)
Winds: from the SSW (200 degrees) at 5 MPH (4 knots; 2.1 m/s)
Visibility: 8 miles (13 km)
Ceiling: 1300 feet AGL
Clouds: scattered clouds at 200 feet AGL
broken clouds at 1300 feet AGL
overcast cloud deck at 2700 feet AGL
Weather: -SN  (light snow)

METAR text: KAFF 042358Z 19006KT 10SM FEW002 SCT006 BKN013 OVC026 M11/M14 A3007 RMK AO2A SNE08SNB10E19SNB21E42SNB45E49 CIG 007V013 BKN V OVC SLP268 P0000 60001 4/006 T11091144 11093 21110 53015
Conditions at: KAFF (USAF ACADEMY/COS, CO, US) observed 2358 UTC 04 March 2015
Temperature: -10.9°C (12°F)
Dewpoint: -14.4°C (6°F) [RH = 75%]
Pressure (altimeter): 30.07 inches Hg (1018.4 mb[Sea-level pressure: 1026.8 mb]
Winds: from the S (190 degrees) at 7 MPH (6 knots; 3.1 m/s)
Visibility: 10 or more miles (16+ km)
Ceiling: 1300 feet AGL
Clouds: few clouds at 200 feet AGL
scattered clouds at 600 feet AGL
broken clouds at 1300 feet AGL
overcast cloud deck at 2600 feet AGL
Weather: no significant weather observed at this time

METAR text: KAFF 042354Z AUTO 19007KT 10SM SCT002 SCT006 BKN013 OVC029 M11/M14 A3007 RMK AO2 SNE08SNB10E19SNB21E42SNB45E49 CIG 007V015 BKN V OVC
Conditions at: KAFF (USAF ACADEMY/COS, CO, US) observed 2354 UTC 04 March 2015
Temperature: -11.0°C (12°F)
Dewpoint: -14.0°C (7°F) [RH = 78%]
Pressure (altimeter): 30.07 inches Hg (1018.4 mb)
Winds: from the S (190 degrees) at 8 MPH (7 knots; 3.6 m/s)
Visibility: 10 or more miles (16+ km)
Ceiling: 1300 feet AGL
Clouds: scattered clouds at 200 feet AGL
scattered clouds at 600 feet AGL
broken clouds at 1300 feet AGL
overcast cloud deck at 2900 feet AGL
Weather: automated observation with no human augmentation;
there may or may not be significant weather present at this time

METAR text: KAFF 042349Z AUTO 19008KT 8SM SCT002 BKN007 OVC013 M10/M14 A3007 RMK AO2 SNE08SNB10E19SNB21E42SNB45E49 CIG 007V016 BKN V SCT
Conditions at: KAFF (USAF ACADEMY/COS, CO, US) observed 2349 UTC 04 March 2015
Temperature: -10.0°C (14°F)
Dewpoint: -14.0°C (7°F) [RH = 72%]
Pressure (altimeter): 30.07 inches Hg (1018.4 mb)
Winds: from the S (190 degrees) at 9 MPH (8 knots; 4.2 m/s)
Visibility: 8 miles (13 km)
Ceiling: 700 feet AGL
Clouds: scattered clouds at 200 feet AGL
broken clouds at 700 feet AGL
overcast cloud deck at 1300 feet AGL
Weather: automated observation with no human augmentation;
there may or may not be significant weather present at this time

METAR text: KAFF 042345Z AUTO 19009KT 7SM -SN SCT002 SCT007 OVC014 M10/M14 A3007 RMK AO2 SNE08SNB10E19SNB21E42SNB45 CIG 012V016
Conditions at: KAFF (USAF ACADEMY/COS, CO, US) observed 2345 UTC 04 March 2015
Temperature: -10.0°C (14°F)
Dewpoint: -14.0°C (7°F) [RH = 72%]
Pressure (altimeter): 30.07 inches Hg (1018.4 mb)
Winds: from the S (190 degrees) at 10 MPH (9 knots; 4.7 m/s)
Visibility: 7 miles (11 km)
Ceiling: 1400 feet AGL
Clouds: scattered clouds at 200 feet AGL
scattered clouds at 700 feet AGL
overcast cloud deck at 1400 feet AGL
Weather: -SN  (light snow)

METAR text: KAFF 042342Z AUTO 18006KT 8SM SCT002 SCT007 BKN012 OVC016 M11/M14 A3006 RMK AO2 SNE08SNB10E19SNB21E42 CIG 012V016 BKN V SCT
Conditions at: KAFF (USAF ACADEMY/COS, CO, US) observed 2342 UTC 04 March 2015
Temperature: -11.0°C (12°F)
Dewpoint: -14.0°C (7°F) [RH = 78%]
Pressure (altimeter): 30.06 inches Hg (1018.0 mb)
Winds: from the S (180 degrees) at 7 MPH (6 knots; 3.1 m/s)
Visibility: 8 miles (13 km)
Ceiling: 1200 feet AGL
Clouds: scattered clouds at 200 feet AGL
scattered clouds at 700 feet AGL
broken clouds at 1200 feet AGL
overcast cloud deck at 1600 feet AGL
Weather: automated observation with no human augmentation;
there may or may not be significant weather present at this time

METAR text: KAFF 042321Z AUTO 16006KT 10SM -SN FEW002 OVC016 M11/M15 A3005 RMK AO2 SNE08SNB10E19SNB21
Conditions at: KAFF (USAF ACADEMY/COS, CO, US) observed 2321 UTC 04 March 2015
Temperature: -11.0°C (12°F)
Dewpoint: -15.0°C (5°F) [RH = 72%]
Pressure (altimeter): 30.05 inches Hg (1017.7 mb)
Winds: from the SSE (160 degrees) at 7 MPH (6 knots; 3.1 m/s)
Visibility: 10 or more miles (16+ km)
Ceiling: 1600 feet AGL
Clouds: few clouds at 200 feet AGL
overcast cloud deck at 1600 feet AGL
Weather: -SN  (light snow)

METAR text: KAFF 042319Z AUTO 16006KT 10SM OVC016 M11/M15 A3005 RMK AO2 SNE08SNB10E19
Conditions at: KAFF (USAF ACADEMY/COS, CO, US) observed 2319 UTC 04 March 2015
Temperature: -11.0°C (12°F)
Dewpoint: -15.0°C (5°F) [RH = 72%]
Pressure (altimeter): 30.05 inches Hg (1017.7 mb)
Winds: from the SSE (160 degrees) at 7 MPH (6 knots; 3.1 m/s)
Visibility: 10 or more miles (16+ km)
Ceiling: 1600 feet AGL
Clouds: overcast cloud deck at 1600 feet AGL
Weather: automated observation with no human augmentation;
there may or may not be significant weather present at this time

METAR text: KAFF 042310Z AUTO 17006KT 10SM -SN FEW008 OVC015 M11/M15 A3005 RMK AO2 SNE08SNB10
Conditions at: KAFF (USAF ACADEMY/COS, CO, US) observed 2310 UTC 04 March 2015
Temperature: -11.0°C (12°F)
Dewpoint: -15.0°C (5°F) [RH = 72%]
Pressure (altimeter): 30.05 inches Hg (1017.7 mb)
Winds: from the S (170 degrees) at 7 MPH (6 knots; 3.1 m/s)
Visibility: 10 or more miles (16+ km)
Ceiling: 1500 feet AGL
Clouds: few clouds at 800 feet AGL
overcast cloud deck at 1500 feet AGL
Weather: -SN  (light snow)

METAR text: KAFF 042308Z AUTO 16007KT 10SM FEW006 OVC015 M11/M15 A3005 RMK AO2 SNE08
Conditions at: KAFF (USAF ACADEMY/COS, CO, US) observed 2308 UTC 04 March 2015
Temperature: -11.0°C (12°F)
Dewpoint: -15.0°C (5°F) [RH = 72%]
Pressure (altimeter): 30.05 inches Hg (1017.7 mb)
Winds: from the SSE (160 degrees) at 8 MPH (7 knots; 3.6 m/s)
Visibility: 10 or more miles (16+ km)
Ceiling: 1500 feet AGL
Clouds: few clouds at 600 feet AGL
overcast cloud deck at 1500 feet AGL
Weather: automated observation with no human augmentation;
there may or may not be significant weather present at this time

METAR text: KAFF 042258Z AUTO 16007KT 10SM -SN SCT007 OVC017 M11/M15 A3004 RMK AO2 SNB21E31SNB58 CIG 009V021 SLP258 P0000
Conditions at: KAFF (USAF ACADEMY/COS, CO, US) observed 2258 UTC 04 March 2015
Temperature: -11.0°C (12°F)
Dewpoint: -15.0°C (5°F) [RH = 72%]
Pressure (altimeter): 30.04 inches Hg (1017.4 mb[Sea-level pressure: 1025.8 mb]
Winds: from the SSE (160 degrees) at 8 MPH (7 knots; 3.6 m/s)
Visibility: 10 or more miles (16+ km)
Ceiling: 1700 feet AGL
Clouds: scattered clouds at 700 feet AGL
overcast cloud deck at 1700 feet AGL
Weather: -SN  (light snow)

METAR text: KAFF 042251Z AUTO 17007KT 10SM SCT009 OVC019 M11/M15 A3004 RMK AO2 SNB21E31 CIG 009V021
Conditions at: KAFF (USAF ACADEMY/COS, CO, US) observed 2251 UTC 04 March 2015
Temperature: -11.0°C (12°F)
Dewpoint: -15.0°C (5°F) [RH = 72%]
Pressure (altimeter): 30.04 inches Hg (1017.4 mb)
Winds: from the S (170 degrees) at 8 MPH (7 knots; 3.6 m/s)
Visibility: 10 or more miles (16+ km)
Ceiling: 1900 feet AGL
Clouds: scattered clouds at 900 feet AGL
overcast cloud deck at 1900 feet AGL
Weather: automated observation with no human augmentation;
there may or may not be significant weather present at this time

METAR text: KAFF 042241Z AUTO 19007KT 10SM FEW003 BKN009 OVC022 M10/M15 A3004 RMK AO2 SNB21E31 CIG 009V019
Conditions at: KAFF (USAF ACADEMY/COS, CO, US) observed 2241 UTC 04 March 2015
Temperature: -10.0°C (14°F)
Dewpoint: -15.0°C (5°F) [RH = 67%]
Pressure (altimeter): 30.04 inches Hg (1017.4 mb)
Winds: from the S (190 degrees) at 8 MPH (7 knots; 3.6 m/s)
Visibility: 10 or more miles (16+ km)
Ceiling: 900 feet AGL
Clouds: few clouds at 300 feet AGL
broken clouds at 900 feet AGL
overcast cloud deck at 2200 feet AGL
Weather: automated observation with no human augmentation;
there may or may not be significant weather present at this time

METAR text: KAFF 042236Z AUTO 18008KT 10SM FEW002 BKN010 OVC020 M10/M14 A3004 RMK AO2 SNB21E31 CIG 010V019 BKN V SCT
Conditions at: KAFF (USAF ACADEMY/COS, CO, US) observed 2236 UTC 04 March 2015
Temperature: -10.0°C (14°F)
Dewpoint: -14.0°C (7°F) [RH = 72%]
Pressure (altimeter): 30.04 inches Hg (1017.4 mb)
Winds: from the S (180 degrees) at 9 MPH (8 knots; 4.2 m/s)
Visibility: 10 or more miles (16+ km)
Ceiling: 1000 feet AGL
Clouds: few clouds at 200 feet AGL
broken clouds at 1000 feet AGL
overcast cloud deck at 2000 feet AGL
Weather: automated observation with no human augmentation;
there may or may not be significant weather present at this time

METAR text: KAFF 042231Z AUTO 17005KT 8SM FEW002 SCT010 OVC019 M10/M14 A3004 RMK AO2 SNB21E31
Conditions at: KAFF (USAF ACADEMY/COS, CO, US) observed 2231 UTC 04 March 2015
Temperature: -10.0°C (14°F)
Dewpoint: -14.0°C (7°F) [RH = 72%]
Pressure (altimeter): 30.04 inches Hg (1017.4 mb)
Winds: from the S (170 degrees) at 6 MPH (5 knots; 2.6 m/s)
Visibility: 8 miles (13 km)
Ceiling: 1900 feet AGL
Clouds: few clouds at 200 feet AGL
scattered clouds at 1000 feet AGL
overcast cloud deck at 1900 feet AGL
Weather: automated observation with no human augmentation;
there may or may not be significant weather present at this time

METAR text: KAFF 042226Z AUTO 17007KT 5SM -SN FEW002 SCT010 OVC019 M10/M14 A3003 RMK AO2 SNB21
Conditions at: KAFF (USAF ACADEMY/COS, CO, US) observed 2226 UTC 04 March 2015
Temperature: -10.0°C (14°F)
Dewpoint: -14.0°C (7°F) [RH = 72%]
Pressure (altimeter): 30.03 inches Hg (1017.0 mb)
Winds: from the S (170 degrees) at 8 MPH (7 knots; 3.6 m/s)
Visibility: 5 miles (8 km)
Ceiling: 1900 feet AGL
Clouds: few clouds at 200 feet AGL
scattered clouds at 1000 feet AGL
overcast cloud deck at 1900 feet AGL
Weather: -SN  (light snow)

METAR text: KAFF 042221Z AUTO 17007KT 5SM -SN SCT002 OVC019 M10/M14 A3003 RMK AO2 SNB21 CIG 015V019
Conditions at: KAFF (USAF ACADEMY/COS, CO, US) observed 2221 UTC 04 March 2015
Temperature: -10.0°C (14°F)
Dewpoint: -14.0°C (7°F) [RH = 72%]
Pressure (altimeter): 30.03 inches Hg (1017.0 mb)
Winds: from the S (170 degrees) at 8 MPH (7 knots; 3.6 m/s)
Visibility: 5 miles (8 km)
Ceiling: 1900 feet AGL
Clouds: scattered clouds at 200 feet AGL
overcast cloud deck at 1900 feet AGL
Weather: -SN  (light snow)

METAR text: KAFF 042203Z AUTO 16006KT 5SM HZ SCT002 SCT006 OVC017 M10/M14 A3003 RMK AO2 CIG 007V019
Conditions at: KAFF (USAF ACADEMY/COS, CO, US) observed 2203 UTC 04 March 2015
Temperature: -10.0°C (14°F)
Dewpoint: -14.0°C (7°F) [RH = 72%]
Pressure (altimeter): 30.03 inches Hg (1017.0 mb)
Winds: from the SSE (160 degrees) at 7 MPH (6 knots; 3.1 m/s)
Visibility: 5 miles (8 km)
Ceiling: 1700 feet AGL
Clouds: scattered clouds at 200 feet AGL
scattered clouds at 600 feet AGL
overcast cloud deck at 1700 feet AGL
Weather: HZ  (haze)

METAR text: KAFF 042158Z AUTO 16007KT 6SM HZ SCT002 BKN007 BKN011 OVC018 M11/M14 A3003 RMK AO2 SNE37SNB39E49 CIG 007V020 BKN007 V SCT SLP248 P0000 T11081143
Conditions at: KAFF (USAF ACADEMY/COS, CO, US) observed 2158 UTC 04 March 2015
Temperature: -10.8°C (13°F)
Dewpoint: -14.3°C (6°F) [RH = 75%]
Pressure (altimeter): 30.03 inches Hg (1017.0 mb[Sea-level pressure: 1024.8 mb]
Winds: from the SSE (160 degrees) at 8 MPH (7 knots; 3.6 m/s)
Visibility: 6 miles (10 km)
Ceiling: 700 feet AGL
Clouds: scattered clouds at 200 feet AGL
broken clouds at 700 feet AGL
broken clouds at 1100 feet AGL
overcast cloud deck at 1800 feet AGL
Weather: HZ  (haze)

METAR text: KAFF 042154Z AUTO 16008KT 6SM HZ FEW002 SCT007 SCT011 OVC019 M11/M14 A3002 RMK AO2 SNE37SNB39E49 CIG 016V020
Conditions at: KAFF (USAF ACADEMY/COS, CO, US) observed 2154 UTC 04 March 2015
Temperature: -11.0°C (12°F)
Dewpoint: -14.0°C (7°F) [RH = 78%]
Pressure (altimeter): 30.02 inches Hg (1016.7 mb)
Winds: from the SSE (160 degrees) at 9 MPH (8 knots; 4.2 m/s)
Visibility: 6 miles (10 km)
Ceiling: 1900 feet AGL
Clouds: few clouds at 200 feet AGL
scattered clouds at 700 feet AGL
scattered clouds at 1100 feet AGL
overcast cloud deck at 1900 feet AGL
Weather: HZ  (haze)

METAR text: KAFF 042149Z AUTO 16007KT 4SM HZ FEW002 SCT009 OVC019 M11/M14 A3003 RMK AO2 SNE37SNB39E49 CIG 015V020
Conditions at: KAFF (USAF ACADEMY/COS, CO, US) observed 2149 UTC 04 March 2015
Temperature: -11.0°C (12°F)
Dewpoint: -14.0°C (7°F) [RH = 78%]
Pressure (altimeter): 30.03 inches Hg (1017.0 mb)
Winds: from the SSE (160 degrees) at 8 MPH (7 knots; 3.6 m/s)
Visibility: 4 miles (6 km)
Ceiling: 1900 feet AGL
Clouds: few clouds at 200 feet AGL
scattered clouds at 900 feet AGL
overcast cloud deck at 1900 feet AGL
Weather: HZ  (haze)

METAR text: KAFF 042139Z AUTO 16008KT 3SM -SN FEW002 SCT009 OVC015 M11/M14 A3003 RMK AO2 SNE37SNB39 CIG 010V016
Conditions at: KAFF (USAF ACADEMY/COS, CO, US) observed 2139 UTC 04 March 2015
Temperature: -11.0°C (12°F)
Dewpoint: -14.0°C (7°F) [RH = 78%]
Pressure (altimeter): 30.03 inches Hg (1017.0 mb)
Winds: from the SSE (160 degrees) at 9 MPH (8 knots; 4.2 m/s)
Visibility: 3 miles (5 km)
Ceiling: 1500 feet AGL
Clouds: few clouds at 200 feet AGL
scattered clouds at 900 feet AGL
overcast cloud deck at 1500 feet AGL
Weather: -SN  (light snow)

METAR text: KAFF 042137Z AUTO 17007KT 3SM HZ FEW002 SCT010 OVC015 M10/M14 A3003 RMK AO2 SNE37 CIG 010V016
Conditions at: KAFF (USAF ACADEMY/COS, CO, US) observed 2137 UTC 04 March 2015
Temperature: -10.0°C (14°F)
Dewpoint: -14.0°C (7°F) [RH = 72%]
Pressure (altimeter): 30.03 inches Hg (1017.0 mb)
Winds: from the S (170 degrees) at 8 MPH (7 knots; 3.6 m/s)
Visibility: 3 miles (5 km)
Ceiling: 1500 feet AGL
Clouds: few clouds at 200 feet AGL
scattered clouds at 1000 feet AGL
overcast cloud deck at 1500 feet AGL
Weather: HZ  (haze)

METAR text: KAFF 042133Z AUTO 16010KT 3SM -SN FEW002 BKN010 OVC014 M10/M14 A3002 RMK AO2 CIG 010V014 BKN V SCT
Conditions at: KAFF (USAF ACADEMY/COS, CO, US) observed 2133 UTC 04 March 2015
Temperature: -10.0°C (14°F)
Dewpoint: -14.0°C (7°F) [RH = 72%]
Pressure (altimeter): 30.02 inches Hg (1016.7 mb)
Winds: from the SSE (160 degrees) at 12 MPH (10 knots; 5.2 m/s)
Visibility: 3 miles (5 km)
Ceiling: 1000 feet AGL
Clouds: few clouds at 200 feet AGL
broken clouds at 1000 feet AGL
overcast cloud deck at 1400 feet AGL
Weather: -SN  (light snow)

METAR text: KAFF 042128Z AUTO 17009KT 2SM -SN SCT002 OVC014 M10/M14 A3003 RMK AO2 VIS 1 1/4V2 CIG 002V014
Conditions at: KAFF (USAF ACADEMY/COS, CO, US) observed 2128 UTC 04 March 2015
Temperature: -10.0°C (14°F)
Dewpoint: -14.0°C (7°F) [RH = 72%]
Pressure (altimeter): 30.03 inches Hg (1017.0 mb)
Winds: from the S (170 degrees) at 10 MPH (9 knots; 4.7 m/s)
Visibility: 2.00 miles (3.22 km)
Ceiling: 1400 feet AGL
Clouds: scattered clouds at 200 feet AGL
overcast cloud deck at 1400 feet AGL
Weather: -SN  (light snow)

METAR text: KAFF 042123Z AUTO 14007KT 1 1/2SM -SN SCT002 OVC012 M11/M14 A3002 RMK AO2 CIG 002V012
Conditions at: KAFF (USAF ACADEMY/COS, CO, US) observed 2123 UTC 04 March 2015
Temperature: -11.0°C (12°F)
Dewpoint: -14.0°C (7°F) [RH = 78%]
Pressure (altimeter): 30.02 inches Hg (1016.7 mb)
Winds: from the SE (140 degrees) at 8 MPH (7 knots; 3.6 m/s)
Visibility: 1.50 miles (2.41 km)
Ceiling: 1200 feet AGL
Clouds: scattered clouds at 200 feet AGL
overcast cloud deck at 1200 feet AGL
Weather: -SN  (light snow)

METAR text: KAFF 042118Z AUTO 15010KT 1 1/4SM -SN BKN002 OVC008 M11/M14 A3002 RMK AO2 VIS 1 1/4V1 3/4 CIG 002V013 BKN V SCT
Conditions at: KAFF (USAF ACADEMY/COS, CO, US) observed 2118 UTC 04 March 2015
Temperature: -11.0°C (12°F)
Dewpoint: -14.0°C (7°F) [RH = 78%]
Pressure (altimeter): 30.02 inches Hg (1016.7 mb)
Winds: from the SSE (150 degrees) at 12 MPH (10 knots; 5.2 m/s)
Visibility: 1.25 miles (2.01 km)
Ceiling: 200 feet AGL
Clouds: broken clouds at 200 feet AGL
overcast cloud deck at 800 feet AGL
Weather: -SN  (light snow)

METAR text: KAFF 042113Z AUTO 15008KT 1 1/4SM -SN BKN002 OVC012 M11/M14 A3002 RMK AO2 VIS 1 1/4V2 1/2 CIG 002V015 BKN V SCT
Conditions at: KAFF (USAF ACADEMY/COS, CO, US) observed 2113 UTC 04 March 2015
Temperature: -11.0°C (12°F)
Dewpoint: -14.0°C (7°F) [RH = 78%]
Pressure (altimeter): 30.02 inches Hg (1016.7 mb)
Winds: from the SSE (150 degrees) at 9 MPH (8 knots; 4.2 m/s)
Visibility: 1.25 miles (2.01 km)
Ceiling: 200 feet AGL
Clouds: broken clouds at 200 feet AGL
overcast cloud deck at 1200 feet AGL
Weather: -SN  (light snow)

METAR text: KAFF 042108Z AUTO 16009KT 1 3/4SM -SN SCT002 OVC013 M11/M15 A3002 RMK AO2 VIS 1 3/4V3
Conditions at: KAFF (USAF ACADEMY/COS, CO, US) observed 2108 UTC 04 March 2015
Temperature: -11.0°C (12°F)
Dewpoint: -15.0°C (5°F) [RH = 72%]
Pressure (altimeter): 30.02 inches Hg (1016.7 mb)
Winds: from the SSE (160 degrees) at 10 MPH (9 knots; 4.7 m/s)
Visibility: 1.75 miles (2.82 km)
Ceiling: 1300 feet AGL
Clouds: scattered clouds at 200 feet AGL
overcast cloud deck at 1300 feet AGL
Weather: -SN  (light snow)

METAR text: KAFF 042103Z AUTO 16009KT 2 1/2SM -SN SCT002 OVC015 M11/M15 A3002 RMK AO2 VIS 2 1/2V3
Conditions at: KAFF (USAF ACADEMY/COS, CO, US) observed 2103 UTC 04 March 2015
Temperature: -11.0°C (12°F)
Dewpoint: -15.0°C (5°F) [RH = 72%]
Pressure (altimeter): 30.02 inches Hg (1016.7 mb)
Winds: from the SSE (160 degrees) at 10 MPH (9 knots; 4.7 m/s)
Visibility: 2.50 miles (4.02 km)
Ceiling: 1500 feet AGL
Clouds: scattered clouds at 200 feet AGL
overcast cloud deck at 1500 feet AGL
Weather: -SN  (light snow)

METAR text: KAFF 042058Z 17009KT 3SM -SN OVC015 M11/M14 A3002 RMK AO2A SLP239 P0000 60000 T11101143 58004
Conditions at: KAFF (USAF ACADEMY/COS, CO, US) observed 2058 UTC 04 March 2015
Temperature: -11.0°C (12°F)
Dewpoint: -14.3°C (6°F) [RH = 77%]
Pressure (altimeter): 30.02 inches Hg (1016.7 mb[Sea-level pressure: 1023.9 mb]
Winds: from the S (170 degrees) at 10 MPH (9 knots; 4.7 m/s)
Visibility: 3 miles (5 km)
Ceiling: 1500 feet AGL
Clouds: overcast cloud deck at 1500 feet AGL
Weather: -SN  (light snow)

METAR text: KAFF 042049Z 14007KT 2 1/2SM -SN OVC015 M11/M14 A3002 RMK AO2A VIS 2 1/2V4
Conditions at: KAFF (USAF ACADEMY/COS, CO, US) observed 2049 UTC 04 March 2015
Temperature: -11.0°C (12°F)
Dewpoint: -14.0°C (7°F) [RH = 78%]
Pressure (altimeter): 30.02 inches Hg (1016.7 mb)
Winds: from the SE (140 degrees) at 8 MPH (7 knots; 3.6 m/s)
Visibility: 2.50 miles (4.02 km)
Ceiling: 1500 feet AGL
Clouds: overcast cloud deck at 1500 feet AGL
Weather: -SN  (light snow)

METAR text: KAFF 042044Z 14009KT 3SM -SN OVC016 M11/M15 A3002 RMK AO2A
Conditions at: KAFF (USAF ACADEMY/COS, CO, US) observed 2044 UTC 04 March 2015
Temperature: -11.0°C (12°F)
Dewpoint: -15.0°C (5°F) [RH = 72%]
Pressure (altimeter): 30.02 inches Hg (1016.7 mb)
Winds: from the SE (140 degrees) at 10 MPH (9 knots; 4.7 m/s)
Visibility: 3 miles (5 km)
Ceiling: 1600 feet AGL
Clouds: overcast cloud deck at 1600 feet AGL
Weather: -SN  (light snow)

METAR text: KAFF 042028Z AUTO 15010KT 4SM -SN OVC016 M11/M15 A3002 RMK AO2
Conditions at: KAFF (USAF ACADEMY/COS, CO, US) observed 2028 UTC 04 March 2015
Temperature: -11.0°C (12°F)
Dewpoint: -15.0°C (5°F) [RH = 72%]
Pressure (altimeter): 30.02 inches Hg (1016.7 mb)
Winds: from the SSE (150 degrees) at 12 MPH (10 knots; 5.2 m/s)
Visibility: 4 miles (6 km)
Ceiling: 1600 feet AGL
Clouds: overcast cloud deck at 1600 feet AGL
Weather: -SN  (light snow)

METAR text: KAFF 042013Z AUTO 15010KT 4SM -SN OVC015 M11/M15 A3002 RMK AO2
Conditions at: KAFF (USAF ACADEMY/COS, CO, US) observed 2013 UTC 04 March 2015
Temperature: -11.0°C (12°F)
Dewpoint: -15.0°C (5°F) [RH = 72%]
Pressure (altimeter): 30.02 inches Hg (1016.7 mb)
Winds: from the SSE (150 degrees) at 12 MPH (10 knots; 5.2 m/s)
Visibility: 4 miles (6 km)
Ceiling: 1500 feet AGL
Clouds: overcast cloud deck at 1500 feet AGL
Weather: -SN  (light snow)

METAR text: KAFF 042008Z AUTO 15009KT 4SM -SN OVC014 M11/M14 A3002 RMK AO2
Conditions at: KAFF (USAF ACADEMY/COS, CO, US) observed 2008 UTC 04 March 2015
Temperature: -11.0°C (12°F)
Dewpoint: -14.0°C (7°F) [RH = 78%]
Pressure (altimeter): 30.02 inches Hg (1016.7 mb)
Winds: from the SSE (150 degrees) at 10 MPH (9 knots; 4.7 m/s)
Visibility: 4 miles (6 km)
Ceiling: 1400 feet AGL
Clouds: overcast cloud deck at 1400 feet AGL
Weather: -SN  (light snow)

METAR text: KAFF 041958Z AUTO 15010KT 3SM -SN OVC012 M11/M15 A3002 RMK AO2 SHSNE1858SNB30 SLP239 P0000 T11081146
Conditions at: KAFF (USAF ACADEMY/COS, CO, US) observed 1958 UTC 04 March 2015
Temperature: -10.8°C (13°F)
Dewpoint: -14.6°C (6°F) [RH = 74%]
Pressure (altimeter): 30.02 inches Hg (1016.7 mb[Sea-level pressure: 1023.9 mb]
Winds: from the SSE (150 degrees) at 12 MPH (10 knots; 5.2 m/s)
Visibility: 3 miles (5 km)
Ceiling: 1200 feet AGL
Clouds: overcast cloud deck at 1200 feet AGL
Weather: -SN  (light snow)

METAR text: KAFF 041948Z AUTO 16011KT 3SM -SN OVC013 M11/M15 A3003 RMK AO2 SHSNE1858SNB30
Conditions at: KAFF (USAF ACADEMY/COS, CO, US) observed 1948 UTC 04 March 2015
Temperature: -11.0°C (12°F)
Dewpoint: -15.0°C (5°F) [RH = 72%]
Pressure (altimeter): 30.03 inches Hg (1017.0 mb)
Winds: from the SSE (160 degrees) at 13 MPH (11 knots; 5.7 m/s)
Visibility: 3 miles (5 km)
Ceiling: 1300 feet AGL
Clouds: overcast cloud deck at 1300 feet AGL
Weather: -SN  (light snow)

METAR text: KAFF 041943Z 14009KT 4SM -SN OVC014 M11/M15 A3003 RMK AO2A
Conditions at: KAFF (USAF ACADEMY/COS, CO, US) observed 1943 UTC 04 March 2015
Temperature: -11.0°C (12°F)
Dewpoint: -15.0°C (5°F) [RH = 72%]
Pressure (altimeter): 30.03 inches Hg (1017.0 mb)
Winds: from the SE (140 degrees) at 10 MPH (9 knots; 4.7 m/s)
Visibility: 4 miles (6 km)
Ceiling: 1400 feet AGL
Clouds: overcast cloud deck at 1400 feet AGL
Weather: -SN  (light snow)

METAR text: KAFF 041938Z 14010KT 3SM -SHSN OVC014 M11/M15 A3003 RMK AO2A
Conditions at: KAFF (USAF ACADEMY/COS, CO, US) observed 1938 UTC 04 March 2015
Temperature: -11.0°C (12°F)
Dewpoint: -15.0°C (5°F) [RH = 72%]
Pressure (altimeter): 30.03 inches Hg (1017.0 mb)
Winds: from the SE (140 degrees) at 12 MPH (10 knots; 5.2 m/s)
Visibility: 3 miles (5 km)
Ceiling: 1400 feet AGL
Clouds: overcast cloud deck at 1400 feet AGL
Weather: -SHSN  (light snow showers)

METAR text: KAFF 041912Z 19011KT 7SM -SHSN FEW005 BKN012 OVC016 M11/M15 A3003 RMK AO2A
Conditions at: KAFF (USAF ACADEMY/COS, CO, US) observed 1912 UTC 04 March 2015
Temperature: -11.0°C (12°F)
Dewpoint: -15.0°C (5°F) [RH = 72%]
Pressure (altimeter): 30.03 inches Hg (1017.0 mb)
Winds: from the S (190 degrees) at 13 MPH (11 knots; 5.7 m/s)
Visibility: 7 miles (11 km)
Ceiling: 1200 feet AGL
Clouds: few clouds at 500 feet AGL
broken clouds at 1200 feet AGL
overcast cloud deck at 1600 feet AGL
Weather: -SHSN  (light snow showers)

METAR text: KAFF 041858Z 18013KT 7SM -SHSN FEW005 SCT012 BKN016 BKN025 M10/M15 A3004 RMK AO2A SLP246 P0000 T11021147
Conditions at: KAFF (USAF ACADEMY/COS, CO, US) observed 1858 UTC 04 March 2015
Temperature: -10.2°C (14°F)
Dewpoint: -14.7°C (6°F) [RH = 70%]
Pressure (altimeter): 30.04 inches Hg (1017.4 mb[Sea-level pressure: 1024.6 mb]
Winds: from the S (180 degrees) at 15 MPH (13 knots; 6.8 m/s)
Visibility: 7 miles (11 km)
Ceiling: 1600 feet AGL
Clouds: few clouds at 500 feet AGL
scattered clouds at 1200 feet AGL
broken clouds at 1600 feet AGL
broken clouds at 2500 feet AGL
Weather: -SHSN  (light snow showers)

METAR text: KAFF 041808Z 17013KT 7SM -SHSN FEW005 SCT012 BKN019 BKN025 M09/M14 A3003 RMK AO2A
Conditions at: KAFF (USAF ACADEMY/COS, CO, US) observed 1808 UTC 04 March 2015
Temperature: -9.0°C (16°F)
Dewpoint: -14.0°C (7°F) [RH = 67%]
Pressure (altimeter): 30.03 inches Hg (1017.0 mb)
Winds: from the S (170 degrees) at 15 MPH (13 knots; 6.8 m/s)
Visibility: 7 miles (11 km)
Ceiling: 1900 feet AGL
Clouds: few clouds at 500 feet AGL
scattered clouds at 1200 feet AGL
broken clouds at 1900 feet AGL
broken clouds at 2500 feet AGL
Weather: -SHSN  (light snow showers)

METAR text: KAFF 041758Z 18012KT 10SM FEW005 SCT015 BKN025 M09/M15 A3003 RMK AO2A SLP236 60000 4/006 T10891151 11089 21133 50001
Conditions at: KAFF (USAF ACADEMY/COS, CO, US) observed 1758 UTC 04 March 2015
Temperature: -8.9°C (16°F)
Dewpoint: -15.1°C (5°F) [RH = 61%]
Pressure (altimeter): 30.03 inches Hg (1017.0 mb[Sea-level pressure: 1023.6 mb]
Winds: from the S (180 degrees) at 14 MPH (12 knots; 6.2 m/s)
Visibility: 10 or more miles (16+ km)
Ceiling: 2500 feet AGL
Clouds: few clouds at 500 feet AGL
scattered clouds at 1500 feet AGL
broken clouds at 2500 feet AGL
Weather: no significant weather observed at this time

METAR text: KAFF 041658Z AUTO 00000KT 10SM SCT007 M11/M16 A3005 RMK AO2 SNE1559UPB1559E15SNB15E47 SLP250 P0000 T11131163
Conditions at: KAFF (USAF ACADEMY/COS, CO, US) observed 1658 UTC 04 March 2015
Temperature: -11.3°C (12°F)
Dewpoint: -16.3°C (3°F) [RH = 66%]
Pressure (altimeter): 30.05 inches Hg (1017.7 mb[Sea-level pressure: 1025.0 mb]
Winds: calm
Visibility: 10 or more miles (16+ km)
Ceiling: at least 12,000 feet AGL
Clouds: scattered clouds at 700 feet AGL
Weather: automated observation with no human augmentation;
there may or may not be significant weather present at this time

METAR text: KAFF 041652Z AUTO 04001KT 10SM SCT007 M11/M16 A3005 RMK AO2 SNE1559UPB1559E15SNB15E47
Conditions at: KAFF (USAF ACADEMY/COS, CO, US) observed 1652 UTC 04 March 2015
Temperature: -11.0°C (12°F)
Dewpoint: -16.0°C (3°F) [RH = 67%]
Pressure (altimeter): 30.05 inches Hg (1017.7 mb)
Winds: from the NE (40 degrees) at 1 MPH (1 knots; 0.5 m/s)
Visibility: 10 or more miles (16+ km)
Ceiling: at least 12,000 feet AGL
Clouds: scattered clouds at 700 feet AGL
Weather: automated observation with no human augmentation;
there may or may not be significant weather present at this time

METAR text: KAFF 041647Z AUTO 01001KT 10SM BKN008 M11/M16 A3005 RMK AO2 SNE1559UPB1559E15SNB15E47 CIG 008V010
Conditions at: KAFF (USAF ACADEMY/COS, CO, US) observed 1647 UTC 04 March 2015
Temperature: -11.0°C (12°F)
Dewpoint: -16.0°C (3°F) [RH = 67%]
Pressure (altimeter): 30.05 inches Hg (1017.7 mb)
Winds: from the N (10 degrees) at 1 MPH (1 knots; 0.5 m/s)
Visibility: 10 or more miles (16+ km)
Ceiling: 800 feet AGL
Clouds: broken clouds at 800 feet AGL
Weather: automated observation with no human augmentation;
there may or may not be significant weather present at this time

METAR text: KAFF 041643Z AUTO 04003KT 10SM -SN BKN008 M11/M16 A3005 RMK AO2 SNE1559UPB1559E15SNB15 CIG 008V012
Conditions at: KAFF (USAF ACADEMY/COS, CO, US) observed 1643 UTC 04 March 2015
Temperature: -11.0°C (12°F)
Dewpoint: -16.0°C (3°F) [RH = 67%]
Pressure (altimeter): 30.05 inches Hg (1017.7 mb)
Winds: from the NE (40 degrees) at 3 MPH (3 knots; 1.6 m/s)
Visibility: 10 or more miles (16+ km)
Ceiling: 800 feet AGL
Clouds: broken clouds at 800 feet AGL
Weather: -SN  (light snow)

METAR text: KAFF 041623Z AUTO 36006KT 10SM -SN OVC014 M12/M17 A3005 RMK AO2 SNE1559UPB1559E15SNB15
Conditions at: KAFF (USAF ACADEMY/COS, CO, US) observed 1623 UTC 04 March 2015
Temperature: -12.0°C (10°F)
Dewpoint: -17.0°C (1°F) [RH = 66%]
Pressure (altimeter): 30.05 inches Hg (1017.7 mb)
Winds: from the N (360 degrees) at 7 MPH (6 knots; 3.1 m/s)
Visibility: 10 or more miles (16+ km)
Ceiling: 1400 feet AGL
Clouds: overcast cloud deck at 1400 feet AGL
Weather: -SN  (light snow)

METAR text: KAFF 041558Z AUTO 36010KT 6SM -SN OVC019 M12/M16 A3005 RMK AO2 CIG 019V024 SLP250 P0000
Conditions at: KAFF (USAF ACADEMY/COS, CO, US) observed 1558 UTC 04 March 2015
Temperature: -12.0°C (10°F)
Dewpoint: -16.0°C (3°F) [RH = 72%]
Pressure (altimeter): 30.05 inches Hg (1017.7 mb[Sea-level pressure: 1025.0 mb]
Winds: from the N (360 degrees) at 12 MPH (10 knots; 5.2 m/s)
Visibility: 6 miles (10 km)
Ceiling: 1900 feet AGL
Clouds: overcast cloud deck at 1900 feet AGL
Weather: -SN  (light snow)

METAR text: KAFF 041548Z AUTO 36010KT 5SM -SN OVC024 M12/M16 A3004 RMK AO2 CIG 024V029
Conditions at: KAFF (USAF ACADEMY/COS, CO, US) observed 1548 UTC 04 March 2015
Temperature: -12.0°C (10°F)
Dewpoint: -16.0°C (3°F) [RH = 72%]
Pressure (altimeter): 30.04 inches Hg (1017.4 mb)
Winds: from the N (360 degrees) at 12 MPH (10 knots; 5.2 m/s)
Visibility: 5 miles (8 km)
Ceiling: 2400 feet AGL
Clouds: overcast cloud deck at 2400 feet AGL
Weather: -SN  (light snow)

METAR text: KAFF 041538Z AUTO 01011KT 4SM -SN OVC029 M12/M16 A3004 RMK AO2
Conditions at: KAFF (USAF ACADEMY/COS, CO, US) observed 1538 UTC 04 March 2015
Temperature: -12.0°C (10°F)
Dewpoint: -16.0°C (3°F) [RH = 72%]
Pressure (altimeter): 30.04 inches Hg (1017.4 mb)
Winds: from the N (10 degrees) at 13 MPH (11 knots; 5.7 m/s)
Visibility: 4 miles (6 km)
Ceiling: 2900 feet AGL
Clouds: overcast cloud deck at 2900 feet AGL
Weather: -SN  (light snow)

METAR text: KAFF 041523Z AUTO 36009KT 5SM -SN OVC030 M12/M16 A3004 RMK AO2
Conditions at: KAFF (USAF ACADEMY/COS, CO, US) observed 1523 UTC 04 March 2015
Temperature: -12.0°C (10°F)
Dewpoint: -16.0°C (3°F) [RH = 72%]
Pressure (altimeter): 30.04 inches Hg (1017.4 mb)
Winds: from the N (360 degrees) at 10 MPH (9 knots; 4.7 m/s)
Visibility: 5 miles (8 km)
Ceiling: 3000 feet AGL
Clouds: overcast cloud deck at 3000 feet AGL
Weather: -SN  (light snow)

METAR text: KAFF 041518Z AUTO 35009KT 5SM -SN OVC028 M13/M16 A3004 RMK AO2 CIG 020V028
Conditions at: KAFF (USAF ACADEMY/COS, CO, US) observed 1518 UTC 04 March 2015
Temperature: -13.0°C (9°F)
Dewpoint: -16.0°C (3°F) [RH = 78%]
Pressure (altimeter): 30.04 inches Hg (1017.4 mb)
Winds: from the N (350 degrees) at 10 MPH (9 knots; 4.7 m/s)
Visibility: 5 miles (8 km)
Ceiling: 2800 feet AGL
Clouds: overcast cloud deck at 2800 feet AGL
Weather: -SN  (light snow)

METAR text: KAFF 041508Z AUTO 35008KT 4SM -SN FEW002 OVC020 M13/M16 A3004 RMK AO2 CIG 008V020
Conditions at: KAFF (USAF ACADEMY/COS, CO, US) observed 1508 UTC 04 March 2015
Temperature: -13.0°C (9°F)
Dewpoint: -16.0°C (3°F) [RH = 78%]
Pressure (altimeter): 30.04 inches Hg (1017.4 mb)
Winds: from the N (350 degrees) at 9 MPH (8 knots; 4.2 m/s)
Visibility: 4 miles (6 km)
Ceiling: 2000 feet AGL
Clouds: few clouds at 200 feet AGL
overcast cloud deck at 2000 feet AGL
Weather: -SN  (light snow)

METAR text: KAFF 041503Z AUTO 34008KT 3SM -SN FEW002 OVC015 M13/M16 A3003 RMK AO2 CIG 003V015
Conditions at: KAFF (USAF ACADEMY/COS, CO, US) observed 1503 UTC 04 March 2015
Temperature: -13.0°C (9°F)
Dewpoint: -16.0°C (3°F) [RH = 78%]
Pressure (altimeter): 30.03 inches Hg (1017.0 mb)
Winds: from the NNW (340 degrees) at 9 MPH (8 knots; 4.2 m/s)
Visibility: 3 miles (5 km)
Ceiling: 1500 feet AGL
Clouds: few clouds at 200 feet AGL
overcast cloud deck at 1500 feet AGL
Weather: -SN  (light snow)

METAR text: KAFF 041458Z AUTO 35009KT 2SM -SN FEW002 OVC008 M13/M16 A3003 RMK AO2 CIG 003V008 SLP248 P0000 60000 52022
Conditions at: KAFF (USAF ACADEMY/COS, CO, US) observed 1458 UTC 04 March 2015
Temperature: -13.0°C (9°F)
Dewpoint: -16.0°C (3°F) [RH = 78%]
Pressure (altimeter): 30.03 inches Hg (1017.0 mb[Sea-level pressure: 1024.8 mb]
Winds: from the N (350 degrees) at 10 MPH (9 knots; 4.7 m/s)
Visibility: 2.00 miles (3.22 km)
Ceiling: 800 feet AGL
Clouds: few clouds at 200 feet AGL
overcast cloud deck at 800 feet AGL
Weather: -SN  (light snow)

METAR text: KAFF 041453Z AUTO 35009KT 180V030 1 3/4SM -SN OVC003 M13/M16 A3003 RMK AO2 CIG 003V007
Conditions at: KAFF (USAF ACADEMY/COS, CO, US) observed 1453 UTC 04 March 2015
Temperature: -13.0°C (9°F)
Dewpoint: -16.0°C (3°F) [RH = 78%]
Pressure (altimeter): 30.03 inches Hg (1017.0 mb)
Winds: from the N (350 degrees) at 10 MPH (9 knots; 4.7 m/s)
Visibility: 1.75 miles (2.82 km)
Ceiling: 300 feet AGL
Clouds: overcast cloud deck at 300 feet AGL
Weather: -SN  (light snow)

METAR text: KAFF 041448Z AUTO 35009KT 2SM -SN OVC005 M13/M16 A3003 RMK AO2 CIG 005V009
Conditions at: KAFF (USAF ACADEMY/COS, CO, US) observed 1448 UTC 04 March 2015
Temperature: -13.0°C (9°F)
Dewpoint: -16.0°C (3°F) [RH = 78%]
Pressure (altimeter): 30.03 inches Hg (1017.0 mb)
Winds: from the N (350 degrees) at 10 MPH (9 knots; 4.7 m/s)
Visibility: 2.00 miles (3.22 km)
Ceiling: 500 feet AGL
Clouds: overcast cloud deck at 500 feet AGL
Weather: -SN  (light snow)

METAR text: KAFF 041438Z AUTO 36009KT 360V080 2SM -SN OVC009 M13/M16 A3002 RMK AO2 VIS 2V2 1/2 CIG 009V014
Conditions at: KAFF (USAF ACADEMY/COS, CO, US) observed 1438 UTC 04 March 2015
Temperature: -13.0°C (9°F)
Dewpoint: -16.0°C (3°F) [RH = 78%]
Pressure (altimeter): 30.02 inches Hg (1016.7 mb)
Winds: from the N (360 degrees) at 10 MPH (9 knots; 4.7 m/s)
Visibility: 2.00 miles (3.22 km)
Ceiling: 900 feet AGL
Clouds: overcast cloud deck at 900 feet AGL
Weather: -SN  (light snow)

METAR text: KAFF 041428Z AUTO 01011KT 2 1/2SM -SN OVC014 M13/M16 A3001 RMK AO2 VIS 2 1/2V3 CIG 014V020
Conditions at: KAFF (USAF ACADEMY/COS, CO, US) observed 1428 UTC 04 March 2015
Temperature: -13.0°C (9°F)
Dewpoint: -16.0°C (3°F) [RH = 78%]
Pressure (altimeter): 30.01 inches Hg (1016.3 mb)
Winds: from the N (10 degrees) at 13 MPH (11 knots; 5.7 m/s)
Visibility: 2.50 miles (4.02 km)
Ceiling: 1400 feet AGL
Clouds: overcast cloud deck at 1400 feet AGL
Weather: -SN  (light snow)

METAR text: KAFF 041423Z AUTO 01011KT 3SM -SN OVC017 M13/M16 A3001 RMK AO2 CIG 017V022
Conditions at: KAFF (USAF ACADEMY/COS, CO, US) observed 1423 UTC 04 March 2015
Temperature: -13.0°C (9°F)
Dewpoint: -16.0°C (3°F) [RH = 78%]
Pressure (altimeter): 30.01 inches Hg (1016.3 mb)
Winds: from the N (10 degrees) at 13 MPH (11 knots; 5.7 m/s)
Visibility: 3 miles (5 km)
Ceiling: 1700 feet AGL
Clouds: overcast cloud deck at 1700 feet AGL
Weather: -SN  (light snow)

METAR text: KAFF 041413Z AUTO 01012KT 3SM -SN FEW014 OVC022 M13/M16 A3000 RMK AO2 CIG 022V033
Conditions at: KAFF (USAF ACADEMY/COS, CO, US) observed 1413 UTC 04 March 2015
Temperature: -13.0°C (9°F)
Dewpoint: -16.0°C (3°F) [RH = 78%]
Pressure (altimeter): 30.00 inches Hg (1016.0 mb)
Winds: from the N (10 degrees) at 14 MPH (12 knots; 6.2 m/s)
Visibility: 3 miles (5 km)
Ceiling: 2200 feet AGL
Clouds: few clouds at 1400 feet AGL
overcast cloud deck at 2200 feet AGL
Weather: -SN  (light snow)

METAR text: KAFF 041408Z AUTO 36012KT 4SM -SN FEW013 OVC025 M13/M16 A3000 RMK AO2 CIG 025V037
Conditions at: KAFF (USAF ACADEMY/COS, CO, US) observed 1408 UTC 04 March 2015
Temperature: -13.0°C (9°F)
Dewpoint: -16.0°C (3°F) [RH = 78%]
Pressure (altimeter): 30.00 inches Hg (1016.0 mb)
Winds: from the N (360 degrees) at 14 MPH (12 knots; 6.2 m/s)
Visibility: 4 miles (6 km)
Ceiling: 2500 feet AGL
Clouds: few clouds at 1300 feet AGL
overcast cloud deck at 2500 feet AGL
Weather: -SN  (light snow)

METAR text: KAFF 041358Z AUTO 01011KT 4SM -SN SCT013 OVC037 M13/M17 A2999 RMK AO2 SLP234 P0000 T11331168
Conditions at: KAFF (USAF ACADEMY/COS, CO, US) observed 1358 UTC 04 March 2015
Temperature: -13.3°C (8°F)
Dewpoint: -16.8°C (2°F) [RH = 75%]
Pressure (altimeter): 29.99 inches Hg (1015.7 mb[Sea-level pressure: 1023.4 mb]
Winds: from the N (10 degrees) at 13 MPH (11 knots; 5.7 m/s)
Visibility: 4 miles (6 km)
Ceiling: 3700 feet AGL
Clouds: scattered clouds at 1300 feet AGL
overcast cloud deck at 3700 feet AGL
Weather: -SN  (light snow)

METAR text: KAFF 041338Z AUTO 36012KT 4SM -SN OVC034 M13/M17 A2999 RMK AO2
Conditions at: KAFF (USAF ACADEMY/COS, CO, US) observed 1338 UTC 04 March 2015
Temperature: -13.0°C (9°F)
Dewpoint: -17.0°C (1°F) [RH = 72%]
Pressure (altimeter): 29.99 inches Hg (1015.7 mb)
Winds: from the N (360 degrees) at 14 MPH (12 knots; 6.2 m/s)
Visibility: 4 miles (6 km)
Ceiling: 3400 feet AGL
Clouds: overcast cloud deck at 3400 feet AGL
Weather: -SN  (light snow)

METAR text: KAFF 041323Z AUTO 01013KT 3SM -SN OVC031 M13/M17 A2998 RMK AO2
Conditions at: KAFF (USAF ACADEMY/COS, CO, US) observed 1323 UTC 04 March 2015
Temperature: -13.0°C (9°F)
Dewpoint: -17.0°C (1°F) [RH = 72%]
Pressure (altimeter): 29.98 inches Hg (1015.3 mb)
Winds: from the N (10 degrees) at 15 MPH (13 knots; 6.8 m/s)
Visibility: 3 miles (5 km)
Ceiling: 3100 feet AGL
Clouds: overcast cloud deck at 3100 feet AGL
Weather: -SN  (light snow)

METAR text: KAFF 041318Z AUTO 36014KT 4SM -SN OVC033 M13/M17 A2998 RMK AO2
Conditions at: KAFF (USAF ACADEMY/COS, CO, US) observed 1318 UTC 04 March 2015
Temperature: -13.0°C (9°F)
Dewpoint: -17.0°C (1°F) [RH = 72%]
Pressure (altimeter): 29.98 inches Hg (1015.3 mb)
Winds: from the N (360 degrees) at 16 MPH (14 knots; 7.3 m/s)
Visibility: 4 miles (6 km)
Ceiling: 3300 feet AGL
Clouds: overcast cloud deck at 3300 feet AGL
Weather: -SN  (light snow)

METAR text: KAFF 041308Z AUTO 01016KT 6SM BLSN OVC031 M13/M17 A2997 RMK AO2
Conditions at: KAFF (USAF ACADEMY/COS, CO, US) observed 1308 UTC 04 March 2015
Temperature: -13.0°C (9°F)
Dewpoint: -17.0°C (1°F) [RH = 72%]
Pressure (altimeter): 29.97 inches Hg (1015.0 mb)
Winds: from the N (10 degrees) at 18 MPH (16 knots; 8.3 m/s)
Visibility: 6 miles (10 km)
Ceiling: 3100 feet AGL
Clouds: overcast cloud deck at 3100 feet AGL
Weather: BLSN  (blowing snow)

METAR text: KAFF 041258Z AUTO 36014KT 280V010 5SM -SN OVC028 M13/M16 A2997 RMK AO2 SLP221 P0000 T11281161
Conditions at: KAFF (USAF ACADEMY/COS, CO, US) observed 1258 UTC 04 March 2015
Temperature: -12.8°C (9°F)
Dewpoint: -16.1°C (3°F) [RH = 76%]
Pressure (altimeter): 29.97 inches Hg (1015.0 mb[Sea-level pressure: 1022.1 mb]
Winds: from the N (360 degrees) at 16 MPH (14 knots; 7.3 m/s)
Visibility: 5 miles (8 km)
Ceiling: 2800 feet AGL
Clouds: overcast cloud deck at 2800 feet AGL
Weather: -SN  (light snow)

METAR text: KAFF 041248Z AUTO 36014KT 4SM -SN OVC027 M13/M16 A2996 RMK AO2
Conditions at: KAFF (USAF ACADEMY/COS, CO, US) observed 1248 UTC 04 March 2015
Temperature: -13.0°C (9°F)
Dewpoint: -16.0°C (3°F) [RH = 78%]
Pressure (altimeter): 29.96 inches Hg (1014.6 mb)
Winds: from the N (360 degrees) at 16 MPH (14 knots; 7.3 m/s)
Visibility: 4 miles (6 km)
Ceiling: 2700 feet AGL
Clouds: overcast cloud deck at 2700 feet AGL
Weather: -SN  (light snow)

METAR text: KAFF 041228Z AUTO 35014KT 6SM -SN FEW002 OVC021 M12/M16 A2996 RMK AO2 CIG 015V021
Conditions at: KAFF (USAF ACADEMY/COS, CO, US) observed 1228 UTC 04 March 2015
Temperature: -12.0°C (10°F)
Dewpoint: -16.0°C (3°F) [RH = 72%]
Pressure (altimeter): 29.96 inches Hg (1014.6 mb)
Winds: from the N (350 degrees) at 16 MPH (14 knots; 7.3 m/s)
Visibility: 6 miles (10 km)
Ceiling: 2100 feet AGL
Clouds: few clouds at 200 feet AGL
overcast cloud deck at 2100 feet AGL
Weather: -SN  (light snow)

METAR text: KAFF 041223Z AUTO 35013KT 4SM -SN FEW002 OVC017 M12/M16 A2996 RMK AO2
Conditions at: KAFF (USAF ACADEMY/COS, CO, US) observed 1223 UTC 04 March 2015
Temperature: -12.0°C (10°F)
Dewpoint: -16.0°C (3°F) [RH = 72%]
Pressure (altimeter): 29.96 inches Hg (1014.6 mb)
Winds: from the N (350 degrees) at 15 MPH (13 knots; 6.8 m/s)
Visibility: 4 miles (6 km)
Ceiling: 1700 feet AGL
Clouds: few clouds at 200 feet AGL
overcast cloud deck at 1700 feet AGL
Weather: -SN  (light snow)

METAR text: KAFF 041213Z AUTO 35014KT 3SM -SN SCT002 SCT007 OVC018 M12/M15 A2996 RMK AO2 CIG 018V027
Conditions at: KAFF (USAF ACADEMY/COS, CO, US) observed 1213 UTC 04 March 2015
Temperature: -12.0°C (10°F)
Dewpoint: -15.0°C (5°F) [RH = 78%]
Pressure (altimeter): 29.96 inches Hg (1014.6 mb)
Winds: from the N (350 degrees) at 16 MPH (14 knots; 7.3 m/s)
Visibility: 3 miles (5 km)
Ceiling: 1800 feet AGL
Clouds: scattered clouds at 200 feet AGL
scattered clouds at 700 feet AGL
overcast cloud deck at 1800 feet AGL
Weather: -SN  (light snow)

METAR text: KAFF 041208Z AUTO 35013KT 3SM -SN FEW002 SCT007 OVC021 M12/M15 A2996 RMK AO2 CIG 021V028
Conditions at: KAFF (USAF ACADEMY/COS, CO, US) observed 1208 UTC 04 March 2015
Temperature: -12.0°C (10°F)
Dewpoint: -15.0°C (5°F) [RH = 78%]
Pressure (altimeter): 29.96 inches Hg (1014.6 mb)
Winds: from the N (350 degrees) at 15 MPH (13 knots; 6.8 m/s)
Visibility: 3 miles (5 km)
Ceiling: 2100 feet AGL
Clouds: few clouds at 200 feet AGL
scattered clouds at 700 feet AGL
overcast cloud deck at 2100 feet AGL
Weather: -SN  (light snow)

METAR text: KAFF 041203Z AUTO 35012KT 4SM -SN SCT002 SCT007 OVC027 M12/M15 A2996 RMK AO2
Conditions at: KAFF (USAF ACADEMY/COS, CO, US) observed 1203 UTC 04 March 2015
Temperature: -12.0°C (10°F)
Dewpoint: -15.0°C (5°F) [RH = 78%]
Pressure (altimeter): 29.96 inches Hg (1014.6 mb)
Winds: from the N (350 degrees) at 14 MPH (12 knots; 6.2 m/s)
Visibility: 4 miles (6 km)
Ceiling: 2700 feet AGL
Clouds: scattered clouds at 200 feet AGL
scattered clouds at 700 feet AGL
overcast cloud deck at 2700 feet AGL
Weather: -SN  (light snow)

METAR text: KAFF 041158Z 35012KT 5SM -SN FEW002 SCT007 OVC028 M12/M15 A2995 RMK AO2A SLP208 P0000 6//// 70003 4/006 T11191153 11068 21119 53024
Conditions at: KAFF (USAF ACADEMY/COS, CO, US) observed 1158 UTC 04 March 2015
Temperature: -11.9°C (11°F)
Dewpoint: -15.3°C (4°F) [RH = 76%]
Pressure (altimeter): 29.95 inches Hg (1014.3 mb[Sea-level pressure: 1020.8 mb]
Winds: from the N (350 degrees) at 14 MPH (12 knots; 6.2 m/s)
Visibility: 5 miles (8 km)
Ceiling: 2800 feet AGL
Clouds: few clouds at 200 feet AGL
scattered clouds at 700 feet AGL
overcast cloud deck at 2800 feet AGL
Weather: -SN  (light snow)

METAR text: KAFF 041143Z AUTO 35013KT 5SM -SN FEW002 OVC026 M12/M15 A2994 RMK AO2 CIG 020V026
Conditions at: KAFF (USAF ACADEMY/COS, CO, US) observed 1143 UTC 04 March 2015
Temperature: -12.0°C (10°F)
Dewpoint: -15.0°C (5°F) [RH = 78%]
Pressure (altimeter): 29.94 inches Hg (1014.0 mb)
Winds: from the N (350 degrees) at 15 MPH (13 knots; 6.8 m/s)
Visibility: 5 miles (8 km)
Ceiling: 2600 feet AGL
Clouds: few clouds at 200 feet AGL
overcast cloud deck at 2600 feet AGL
Weather: -SN  (light snow)

METAR text: KAFF 041138Z AUTO 35012KT 5SM -SN OVC024 M12/M15 A2994 RMK AO2 CIG 018V024
Conditions at: KAFF (USAF ACADEMY/COS, CO, US) observed 1138 UTC 04 March 2015
Temperature: -12.0°C (10°F)
Dewpoint: -15.0°C (5°F) [RH = 78%]
Pressure (altimeter): 29.94 inches Hg (1014.0 mb)
Winds: from the N (350 degrees) at 14 MPH (12 knots; 6.2 m/s)
Visibility: 5 miles (8 km)
Ceiling: 2400 feet AGL
Clouds: overcast cloud deck at 2400 feet AGL
Weather: -SN  (light snow)

METAR text: KAFF 041133Z AUTO 36013KT 4SM -SN OVC020 M12/M15 A2994 RMK AO2 CIG 014V020
Conditions at: KAFF (USAF ACADEMY/COS, CO, US) observed 1133 UTC 04 March 2015
Temperature: -12.0°C (10°F)
Dewpoint: -15.0°C (5°F) [RH = 78%]
Pressure (altimeter): 29.94 inches Hg (1014.0 mb)
Winds: from the N (360 degrees) at 15 MPH (13 knots; 6.8 m/s)
Visibility: 4 miles (6 km)
Ceiling: 2000 feet AGL
Clouds: overcast cloud deck at 2000 feet AGL
Weather: -SN  (light snow)

METAR text: KAFF 041128Z AUTO 35013KT 4SM -SN OVC018 M12/M15 A2994 RMK AO2 CIG 012V018
Conditions at: KAFF (USAF ACADEMY/COS, CO, US) observed 1128 UTC 04 March 2015
Temperature: -12.0°C (10°F)
Dewpoint: -15.0°C (5°F) [RH = 78%]
Pressure (altimeter): 29.94 inches Hg (1014.0 mb)
Winds: from the N (350 degrees) at 15 MPH (13 knots; 6.8 m/s)
Visibility: 4 miles (6 km)
Ceiling: 1800 feet AGL
Clouds: overcast cloud deck at 1800 feet AGL
Weather: -SN  (light snow)

METAR text: KAFF 041118Z AUTO 35011KT 4SM -SN OVC012 M12/M15 A2993 RMK AO2 PRESRR
Conditions at: KAFF (USAF ACADEMY/COS, CO, US) observed 1118 UTC 04 March 2015
Temperature: -12.0°C (10°F)
Dewpoint: -15.0°C (5°F) [RH = 78%]
Pressure (altimeter): 29.93 inches Hg (1013.6 mb)
Winds: from the N (350 degrees) at 13 MPH (11 knots; 5.7 m/s)
Visibility: 4 miles (6 km)
Ceiling: 1200 feet AGL
Clouds: overcast cloud deck at 1200 feet AGL
Weather: -SN  (light snow)

METAR text: KAFF 041108Z AUTO 35015G18KT 5SM -SN OVC011 M11/M15 A2991 RMK AO2
Conditions at: KAFF (USAF ACADEMY/COS, CO, US) observed 1108 UTC 04 March 2015
Temperature: -11.0°C (12°F)
Dewpoint: -15.0°C (5°F) [RH = 72%]
Pressure (altimeter): 29.91 inches Hg (1013.0 mb)
Winds: from the N (350 degrees) at 17 MPH (15 knots; 7.8 m/sgusting to 21 MPH (18 knots; 9.4 m/s)
Visibility: 5 miles (8 km)
Ceiling: 1100 feet AGL
Clouds: overcast cloud deck at 1100 feet AGL
Weather: -SN  (light snow)

METAR text: KAFF 041103Z AUTO 35016G18KT 4SM -SN OVC011 M11/M14 A2991 RMK AO2
Conditions at: KAFF (USAF ACADEMY/COS, CO, US) observed 1103 UTC 04 March 2015
Temperature: -11.0°C (12°F)
Dewpoint: -14.0°C (7°F) [RH = 78%]
Pressure (altimeter): 29.91 inches Hg (1013.0 mb)
Winds: from the N (350 degrees) at 18 MPH (16 knots; 8.3 m/sgusting to 21 MPH (18 knots; 9.4 m/s)
Visibility: 4 miles (6 km)
Ceiling: 1100 feet AGL
Clouds: overcast cloud deck at 1100 feet AGL
Weather: -SN  (light snow)

METAR text: KAFF 041058Z AUTO 35014KT 3SM -SN OVC010 M11/M14 A2991 RMK AO2 CIG 008V010 SLP194 P0000 T11101140
Conditions at: KAFF (USAF ACADEMY/COS, CO, US) observed 1058 UTC 04 March 2015
Temperature: -11.0°C (12°F)
Dewpoint: -14.0°C (7°F) [RH = 78%]
Pressure (altimeter): 29.91 inches Hg (1013.0 mb[Sea-level pressure: 1019.4 mb]
Winds: from the N (350 degrees) at 16 MPH (14 knots; 7.3 m/s)
Visibility: 3 miles (5 km)
Ceiling: 1000 feet AGL
Clouds: overcast cloud deck at 1000 feet AGL
Weather: -SN  (light snow)

METAR text: KAFF 041053Z AUTO 34014KT 3SM -SN OVC010 M11/M14 A2991 RMK AO2 CIG 008V010 PRESRR
Conditions at: KAFF (USAF ACADEMY/COS, CO, US) observed 1053 UTC 04 March 2015
Temperature: -11.0°C (12°F)
Dewpoint: -14.0°C (7°F) [RH = 78%]
Pressure (altimeter): 29.91 inches Hg (1013.0 mb)
Winds: from the NNW (340 degrees) at 16 MPH (14 knots; 7.3 m/s)
Visibility: 3 miles (5 km)
Ceiling: 1000 feet AGL
Clouds: overcast cloud deck at 1000 feet AGL
Weather: -SN  (light snow)

METAR text: KAFF 041043Z AUTO 34014G19KT 3SM -SN FEW002 OVC008 M10/M13 A2989 RMK AO2 CIG 006V008
Conditions at: KAFF (USAF ACADEMY/COS, CO, US) observed 1043 UTC 04 March 2015
Temperature: -10.0°C (14°F)
Dewpoint: -13.0°C (9°F) [RH = 79%]
Pressure (altimeter): 29.89 inches Hg (1012.3 mb)
Winds: from the NNW (340 degrees) at 16 MPH (14 knots; 7.3 m/sgusting to 22 MPH (19 knots; 9.9 m/s)
Visibility: 3 miles (5 km)
Ceiling: 800 feet AGL
Clouds: few clouds at 200 feet AGL
overcast cloud deck at 800 feet AGL
Weather: -SN  (light snow)

METAR text: KAFF 041033Z AUTO 34014G19KT 2 1/2SM -SN FEW002 OVC006 M09/M12 A2989 RMK AO2 VIS 2 1/2V4 CIG 006V012
Conditions at: KAFF (USAF ACADEMY/COS, CO, US) observed 1033 UTC 04 March 2015
Temperature: -9.0°C (16°F)
Dewpoint: -12.0°C (10°F) [RH = 79%]
Pressure (altimeter): 29.89 inches Hg (1012.3 mb)
Winds: from the NNW (340 degrees) at 16 MPH (14 knots; 7.3 m/sgusting to 22 MPH (19 knots; 9.9 m/s)
Visibility: 2.50 miles (4.02 km)
Ceiling: 600 feet AGL
Clouds: few clouds at 200 feet AGL
overcast cloud deck at 600 feet AGL
Weather: -SN  (light snow)

METAR text: KAFF 041028Z AUTO 35014G19KT 3SM -SN FEW002 OVC008 M09/M12 A2988 RMK AO2 CIG 008V015
Conditions at: KAFF (USAF ACADEMY/COS, CO, US) observed 1028 UTC 04 March 2015
Temperature: -9.0°C (16°F)
Dewpoint: -12.0°C (10°F) [RH = 79%]
Pressure (altimeter): 29.88 inches Hg (1011.9 mb)
Winds: from the N (350 degrees) at 16 MPH (14 knots; 7.3 m/sgusting to 22 MPH (19 knots; 9.9 m/s)
Visibility: 3 miles (5 km)
Ceiling: 800 feet AGL
Clouds: few clouds at 200 feet AGL
overcast cloud deck at 800 feet AGL
Weather: -SN  (light snow)

METAR text: KAFF 041023Z AUTO 35010KT 4SM -SN FEW002 OVC012 M09/M11 A2988 RMK AO2 CIG 012V016
Conditions at: KAFF (USAF ACADEMY/COS, CO, US) observed 1023 UTC 04 March 2015
Temperature: -9.0°C (16°F)
Dewpoint: -11.0°C (12°F) [RH = 85%]
Pressure (altimeter): 29.88 inches Hg (1011.9 mb)
Winds: from the N (350 degrees) at 12 MPH (10 knots; 5.2 m/s)
Visibility: 4 miles (6 km)
Ceiling: 1200 feet AGL
Clouds: few clouds at 200 feet AGL
overcast cloud deck at 1200 feet AGL
Weather: -SN  (light snow)

METAR text: KAFF 041018Z AUTO 35009KT 4SM -SN FEW002 OVC015 M09/M11 A2988 RMK AO2 CIG 015V021
Conditions at: KAFF (USAF ACADEMY/COS, CO, US) observed 1018 UTC 04 March 2015
Temperature: -9.0°C (16°F)
Dewpoint: -11.0°C (12°F) [RH = 85%]
Pressure (altimeter): 29.88 inches Hg (1011.9 mb)
Winds: from the N (350 degrees) at 10 MPH (9 knots; 4.7 m/s)
Visibility: 4 miles (6 km)
Ceiling: 1500 feet AGL
Clouds: few clouds at 200 feet AGL
overcast cloud deck at 1500 feet AGL
Weather: -SN  (light snow)

METAR text: KAFF 041013Z AUTO 36010KT 5SM -SN BKN016 OVC022 M09/M11 A2988 RMK AO2 CIG 016V021
Conditions at: KAFF (USAF ACADEMY/COS, CO, US) observed 1013 UTC 04 March 2015
Temperature: -9.0°C (16°F)
Dewpoint: -11.0°C (12°F) [RH = 85%]
Pressure (altimeter): 29.88 inches Hg (1011.9 mb)
Winds: from the N (360 degrees) at 12 MPH (10 knots; 5.2 m/s)
Visibility: 5 miles (8 km)
Ceiling: 1600 feet AGL
Clouds: broken clouds at 1600 feet AGL
overcast cloud deck at 2200 feet AGL
Weather: -SN  (light snow)

METAR text: KAFF 040958Z AUTO 35008KT 6SM -SN FEW002 OVC022 M08/M11 A2988 RMK AO2 SLP177 P0000 T10851112
Conditions at: KAFF (USAF ACADEMY/COS, CO, US) observed 0958 UTC 04 March 2015
Temperature: -8.5°C (17°F)
Dewpoint: -11.2°C (12°F) [RH = 81%]
Pressure (altimeter): 29.88 inches Hg (1011.9 mb[Sea-level pressure: 1017.7 mb]
Winds: from the N (350 degrees) at 9 MPH (8 knots; 4.2 m/s)
Visibility: 6 miles (10 km)
Ceiling: 2200 feet AGL
Clouds: few clouds at 200 feet AGL
overcast cloud deck at 2200 feet AGL
Weather: -SN  (light snow)

METAR text: KAFF 040858Z AUTO 34007KT 10SM -SN OVC020 M08/M11 A2987 RMK AO2 SLP167 P0000 60000 T10821107 52009
Conditions at: KAFF (USAF ACADEMY/COS, CO, US) observed 0858 UTC 04 March 2015
Temperature: -8.2°C (17°F)
Dewpoint: -10.7°C (13°F) [RH = 82%]
Pressure (altimeter): 29.87 inches Hg (1011.6 mb[Sea-level pressure: 1016.7 mb]
Winds: from the NNW (340 degrees) at 8 MPH (7 knots; 3.6 m/s)
Visibility: 10 or more miles (16+ km)
Ceiling: 2000 feet AGL
Clouds: overcast cloud deck at 2000 feet AGL
Weather: -SN  (light snow)

METAR text: KAFF 040833Z AUTO 35007KT 10SM -SN OVC020 M08/M11 A2986 RMK AO2
Conditions at: KAFF (USAF ACADEMY/COS, CO, US) observed 0833 UTC 04 March 2015
Temperature: -8.0°C (18°F)
Dewpoint: -11.0°C (12°F) [RH = 79%]
Pressure (altimeter): 29.86 inches Hg (1011.3 mb)
Winds: from the N (350 degrees) at 8 MPH (7 knots; 3.6 m/s)
Visibility: 10 or more miles (16+ km)
Ceiling: 2000 feet AGL
Clouds: overcast cloud deck at 2000 feet AGL
Weather: -SN  (light snow)

METAR text: KAFF 040758Z AUTO 34007KT 6SM -SN BR FEW002 OVC016 M08/M10 A2985 RMK AO2 CIG 011V017 SLP160 P0000
Conditions at: KAFF (USAF ACADEMY/COS, CO, US) observed 0758 UTC 04 March 2015
Temperature: -8.0°C (18°F)
Dewpoint: -10.0°C (14°F) [RH = 85%]
Pressure (altimeter): 29.85 inches Hg (1010.9 mb[Sea-level pressure: 1016.0 mb]
Winds: from the NNW (340 degrees) at 8 MPH (7 knots; 3.6 m/s)
Visibility: 6 miles (10 km)
Ceiling: 1600 feet AGL
Clouds: few clouds at 200 feet AGL
overcast cloud deck at 1600 feet AGL
Weather: -SN BR  (light snow, mist)

METAR text: KAFF 040718Z AUTO 34010KT 6SM -SN BR OVC011 M08/M09 A2984 RMK AO2
Conditions at: KAFF (USAF ACADEMY/COS, CO, US) observed 0718 UTC 04 March 2015
Temperature: -8.0°C (18°F)
Dewpoint: -9.0°C (16°F) [RH = 92%]
Pressure (altimeter): 29.84 inches Hg (1010.6 mb)
Winds: from the NNW (340 degrees) at 12 MPH (10 knots; 5.2 m/s)
Visibility: 6 miles (10 km)
Ceiling: 1100 feet AGL
Clouds: overcast cloud deck at 1100 feet AGL
Weather: -SN BR  (light snow, mist)

METAR text: KAFF 040658Z AUTO 34010KT 10SM -SN OVC008 M08/M09 A2984 RMK AO2 CIG 006V008 SLP157 P0000
Conditions at: KAFF (USAF ACADEMY/COS, CO, US) observed 0658 UTC 04 March 2015
Temperature: -8.0°C (18°F)
Dewpoint: -9.0°C (16°F) [RH = 92%]
Pressure (altimeter): 29.84 inches Hg (1010.6 mb[Sea-level pressure: 1015.7 mb]
Winds: from the NNW (340 degrees) at 12 MPH (10 knots; 5.2 m/s)
Visibility: 10 or more miles (16+ km)
Ceiling: 800 feet AGL
Clouds: overcast cloud deck at 800 feet AGL
Weather: -SN  (light snow)

METAR text: KAFF 040633Z AUTO VRB03KT 10SM -SN OVC005 M07/M08 A2983 RMK AO2
Conditions at: KAFF (USAF ACADEMY/COS, CO, US) observed 0633 UTC 04 March 2015
Temperature: -7.0°C (19°F)
Dewpoint: -8.0°C (18°F) [RH = 93%]
Pressure (altimeter): 29.83 inches Hg (1010.2 mb)
Winds: variable direction winds at 3 MPH (3 knots; 1.6 m/s)
Visibility: 10 or more miles (16+ km)
Ceiling: 500 feet AGL
Clouds: overcast cloud deck at 500 feet AGL
Weather: -SN  (light snow)

METAR text: KAFF 040623Z AUTO 17006KT 9SM -SN OVC004 M07/M08 A2983 RMK AO2 CIG 003V005
Conditions at: KAFF (USAF ACADEMY/COS, CO, US) observed 0623 UTC 04 March 2015
Temperature: -7.0°C (19°F)
Dewpoint: -8.0°C (18°F) [RH = 93%]
Pressure (altimeter): 29.83 inches Hg (1010.2 mb)
Winds: from the S (170 degrees) at 7 MPH (6 knots; 3.1 m/s)
Visibility: 9 miles (14 km)
Ceiling: 400 feet AGL
Clouds: overcast cloud deck at 400 feet AGL
Weather: -SN  (light snow)

METAR text: KAFF 040618Z AUTO 17006KT 9SM -SN OVC005 M07/M08 A2983 RMK AO2 CIG 003V005
Conditions at: KAFF (USAF ACADEMY/COS, CO, US) observed 0618 UTC 04 March 2015
Temperature: -7.0°C (19°F)
Dewpoint: -8.0°C (18°F) [RH = 93%]
Pressure (altimeter): 29.83 inches Hg (1010.2 mb)
Winds: from the S (170 degrees) at 7 MPH (6 knots; 3.1 m/s)
Visibility: 9 miles (14 km)
Ceiling: 500 feet AGL
Clouds: overcast cloud deck at 500 feet AGL
Weather: -SN  (light snow)

METAR text: KAFF 040558Z AUTO 15006KT 6SM -SN BR OVC003 M07/M08 A2983 RMK AO2 SLP153 P0000 60000 T10681076 11051 21069 52012
Conditions at: KAFF (USAF ACADEMY/COS, CO, US) observed 0558 UTC 04 March 2015
Temperature: -6.8°C (20°F)
Dewpoint: -7.6°C (18°F) [RH = 94%]
Pressure (altimeter): 29.83 inches Hg (1010.2 mb[Sea-level pressure: 1015.3 mb]
Winds: from the SSE (150 degrees) at 7 MPH (6 knots; 3.1 m/s)
Visibility: 6 miles (10 km)
Ceiling: 300 feet AGL
Clouds: overcast cloud deck at 300 feet AGL
Weather: -SN BR  (light snow, mist)

METAR text: KAFF 040503Z AUTO 14006KT 5SM -SN BR OVC001 M07/M08 A2983 RMK AO2
Conditions at: KAFF (USAF ACADEMY/COS, CO, US) observed 0503 UTC 04 March 2015
Temperature: -7.0°C (19°F)
Dewpoint: -8.0°C (18°F) [RH = 93%]
Pressure (altimeter): 29.83 inches Hg (1010.2 mb)
Winds: from the SE (140 degrees) at 7 MPH (6 knots; 3.1 m/s)
Visibility: 5 miles (8 km)
Ceiling: 100 feet AGL
Clouds: overcast cloud deck at 100 feet AGL
Weather: -SN BR  (light snow, mist)

METAR text: KAFF 040458Z AUTO 15006KT 3SM -SN BR OVC001 M07/M08 A2983 RMK AO2 SNB44 SLP153 P0000 T10681076
Conditions at: KAFF (USAF ACADEMY/COS, CO, US) observed 0458 UTC 04 March 2015
Temperature: -6.8°C (20°F)
Dewpoint: -7.6°C (18°F) [RH = 94%]
Pressure (altimeter): 29.83 inches Hg (1010.2 mb[Sea-level pressure: 1015.3 mb]
Winds: from the SSE (150 degrees) at 7 MPH (6 knots; 3.1 m/s)
Visibility: 3 miles (5 km)
Ceiling: 100 feet AGL
Clouds: overcast cloud deck at 100 feet AGL
Weather: -SN BR  (light snow, mist)

METAR text: KAFF 040454Z AUTO 13008KT 4SM -SN BR OVC002 M07/M08 A2982 RMK AO2 SNB44
Conditions at: KAFF (USAF ACADEMY/COS, CO, US) observed 0454 UTC 04 March 2015
Temperature: -7.0°C (19°F)
Dewpoint: -8.0°C (18°F) [RH = 93%]
Pressure (altimeter): 29.82 inches Hg (1009.9 mb)
Winds: from the SE (130 degrees) at 9 MPH (8 knots; 4.2 m/s)
Visibility: 4 miles (6 km)
Ceiling: 200 feet AGL
Clouds: overcast cloud deck at 200 feet AGL
Weather: -SN BR  (light snow, mist)

METAR text: KAFF 040444Z AUTO 16007KT 9SM -SN OVC002 M07/M08 A2982 RMK AO2 SNB44
Conditions at: KAFF (USAF ACADEMY/COS, CO, US) observed 0444 UTC 04 March 2015
Temperature: -7.0°C (19°F)
Dewpoint: -8.0°C (18°F) [RH = 93%]
Pressure (altimeter): 29.82 inches Hg (1009.9 mb)
Winds: from the SSE (160 degrees) at 8 MPH (7 knots; 3.6 m/s)
Visibility: 9 miles (14 km)
Ceiling: 200 feet AGL
Clouds: overcast cloud deck at 200 feet AGL
Weather: -SN  (light snow)

METAR text: KAFF 040358Z AUTO 17010KT 10SM OVC002 M07/M07 A2980 RMK AO2 SLP143 T10671075
Conditions at: KAFF (USAF ACADEMY/COS, CO, US) observed 0358 UTC 04 March 2015
Temperature: -6.7°C (20°F)
Dewpoint: -7.5°C (18°F) [RH = 94%]
Pressure (altimeter): 29.80 inches Hg (1009.2 mb[Sea-level pressure: 1014.3 mb]
Winds: from the S (170 degrees) at 12 MPH (10 knots; 5.2 m/s)
Visibility: 10 or more miles (16+ km)
Ceiling: 200 feet AGL
Clouds: overcast cloud deck at 200 feet AGL
Weather: automated observation with no human augmentation;
there may or may not be significant weather present at this time

METAR text: KAFF 040258Z AUTO 16009KT 10SM OVC004 M07/M08 A2979 RMK AO2 SLP115 60000 T10681080 52012
Conditions at: KAFF (USAF ACADEMY/COS, CO, US) observed 0258 UTC 04 March 2015
Temperature: -6.8°C (20°F)
Dewpoint: -8.0°C (18°F) [RH = 91%]
Pressure (altimeter): 29.79 inches Hg (1008.9 mb[Sea-level pressure: 1011.5 mb]
Winds: from the SSE (160 degrees) at 10 MPH (9 knots; 4.7 m/s)
Visibility: 10 or more miles (16+ km)
Ceiling: 400 feet AGL
Clouds: overcast cloud deck at 400 feet AGL
Weather: automated observation with no human augmentation;
there may or may not be significant weather present at this time

METAR text: KAFF 040238Z AUTO 17013KT 10SM OVC006 M07/M08 A2979 RMK AO2
Conditions at: KAFF (USAF ACADEMY/COS, CO, US) observed 0238 UTC 04 March 2015
Temperature: -7.0°C (19°F)
Dewpoint: -8.0°C (18°F) [RH = 93%]
Pressure (altimeter): 29.79 inches Hg (1008.9 mb)
Winds: from the S (170 degrees) at 15 MPH (13 knots; 6.8 m/s)
Visibility: 10 or more miles (16+ km)
Ceiling: 600 feet AGL
Clouds: overcast cloud deck at 600 feet AGL
Weather: automated observation with no human augmentation;
there may or may not be significant weather present at this time

METAR text: KAFF 040158Z AUTO 16010KT 10SM BKN008 OVC017 M07/M08 A2977 RMK AO2 UPE0059SNB0059E37 CIG 008V010 SLP120 P0000 T10661082
Conditions at: KAFF (USAF ACADEMY/COS, CO, US) observed 0158 UTC 04 March 2015
Temperature: -6.6°C (20°F)
Dewpoint: -8.2°C (17°F) [RH = 88%]
Pressure (altimeter): 29.77 inches Hg (1008.2 mb[Sea-level pressure: 1012.0 mb]
Winds: from the SSE (160 degrees) at 12 MPH (10 knots; 5.2 m/s)
Visibility: 10 or more miles (16+ km)
Ceiling: 800 feet AGL
Clouds: broken clouds at 800 feet AGL
overcast cloud deck at 1700 feet AGL
Weather: automated observation with no human augmentation;
there may or may not be significant weather present at this time

METAR text: KAFF 040152Z AUTO 17010KT 9SM FEW002 BKN009 OVC015 M07/M08 A2977 RMK AO2 UPE0059SNB0059E37 CIG 007V015
Conditions at: KAFF (USAF ACADEMY/COS, CO, US) observed 0152 UTC 04 March 2015
Temperature: -7.0°C (19°F)
Dewpoint: -8.0°C (18°F) [RH = 93%]
Pressure (altimeter): 29.77 inches Hg (1008.2 mb)
Winds: from the S (170 degrees) at 12 MPH (10 knots; 5.2 m/s)
Visibility: 9 miles (14 km)
Ceiling: 900 feet AGL
Clouds: few clouds at 200 feet AGL
broken clouds at 900 feet AGL
overcast cloud deck at 1500 feet AGL
Weather: automated observation with no human augmentation;
there may or may not be significant weather present at this time

METAR text: KAFF 040147Z AUTO 17011KT 8SM FEW002 BKN008 OVC015 M07/M08 A2977 RMK AO2 UPE0059SNB0059E37 CIG 007V016 BKN V SCT
Conditions at: KAFF (USAF ACADEMY/COS, CO, US) observed 0147 UTC 04 March 2015
Temperature: -7.0°C (19°F)
Dewpoint: -8.0°C (18°F) [RH = 93%]
Pressure (altimeter): 29.77 inches Hg (1008.2 mb)
Winds: from the S (170 degrees) at 13 MPH (11 knots; 5.7 m/s)
Visibility: 8 miles (13 km)
Ceiling: 800 feet AGL
Clouds: few clouds at 200 feet AGL
broken clouds at 800 feet AGL
overcast cloud deck at 1500 feet AGL
Weather: automated observation with no human augmentation;
there may or may not be significant weather present at this time

METAR text: KAFF 040142Z AUTO 16011KT 7SM FEW002 BKN008 OVC016 M07/M08 A2977 RMK AO2 UPE0059SNB0059E37 CIG 008V016 BKN V SCT
Conditions at: KAFF (USAF ACADEMY/COS, CO, US) observed 0142 UTC 04 March 2015
Temperature: -7.0°C (19°F)
Dewpoint: -8.0°C (18°F) [RH = 93%]
Pressure (altimeter): 29.77 inches Hg (1008.2 mb)
Winds: from the SSE (160 degrees) at 13 MPH (11 knots; 5.7 m/s)
Visibility: 7 miles (11 km)
Ceiling: 800 feet AGL
Clouds: few clouds at 200 feet AGL
broken clouds at 800 feet AGL
overcast cloud deck at 1600 feet AGL
Weather: automated observation with no human augmentation;
there may or may not be significant weather present at this time

METAR text: KAFF 040137Z AUTO 17010KT 6SM BR FEW002 SCT008 OVC015 M06/M08 A2977 RMK AO2 UPE0059SNB0059E37
Conditions at: KAFF (USAF ACADEMY/COS, CO, US) observed 0137 UTC 04 March 2015
Temperature: -6.0°C (21°F)
Dewpoint: -8.0°C (18°F) [RH = 86%]
Pressure (altimeter): 29.77 inches Hg (1008.2 mb)
Winds: from the S (170 degrees) at 12 MPH (10 knots; 5.2 m/s)
Visibility: 6 miles (10 km)
Ceiling: 1500 feet AGL
Clouds: few clouds at 200 feet AGL
scattered clouds at 800 feet AGL
overcast cloud deck at 1500 feet AGL
Weather: BR  (mist)

METAR text: KAFF 040133Z AUTO 18012KT 5SM -SN BR FEW002 SCT008 OVC015 M06/M08 A2977 RMK AO2 UPE0059SNB0059 CIG 011V015
Conditions at: KAFF (USAF ACADEMY/COS, CO, US) observed 0133 UTC 04 March 2015
Temperature: -6.0°C (21°F)
Dewpoint: -8.0°C (18°F) [RH = 86%]
Pressure (altimeter): 29.77 inches Hg (1008.2 mb)
Winds: from the S (180 degrees) at 14 MPH (12 knots; 6.2 m/s)
Visibility: 5 miles (8 km)
Ceiling: 1500 feet AGL
Clouds: few clouds at 200 feet AGL
scattered clouds at 800 feet AGL
overcast cloud deck at 1500 feet AGL
Weather: -SN BR  (light snow, mist)

METAR text: KAFF 040118Z AUTO 18013KT 4SM -SN BR OVC011 M06/M08 A2976 RMK AO2 UPE0059SNB0059 CIG 007V011
Conditions at: KAFF (USAF ACADEMY/COS, CO, US) observed 0118 UTC 04 March 2015
Temperature: -6.0°C (21°F)
Dewpoint: -8.0°C (18°F) [RH = 86%]
Pressure (altimeter): 29.76 inches Hg (1007.9 mb)
Winds: from the S (180 degrees) at 15 MPH (13 knots; 6.8 m/s)
Visibility: 4 miles (6 km)
Ceiling: 1100 feet AGL
Clouds: overcast cloud deck at 1100 feet AGL
Weather: -SN BR  (light snow, mist)

METAR text: KAFF 040113Z AUTO 17014KT 3SM -SN BR OVC009 M06/M08 A2976 RMK AO2 UPE0059SNB0059 CIG 005V009
Conditions at: KAFF (USAF ACADEMY/COS, CO, US) observed 0113 UTC 04 March 2015
Temperature: -6.0°C (21°F)
Dewpoint: -8.0°C (18°F) [RH = 86%]
Pressure (altimeter): 29.76 inches Hg (1007.9 mb)
Winds: from the S (170 degrees) at 16 MPH (14 knots; 7.3 m/s)
Visibility: 3 miles (5 km)
Ceiling: 900 feet AGL
Clouds: overcast cloud deck at 900 feet AGL
Weather: -SN BR  (light snow, mist)

METAR text: KAFF 040108Z AUTO 17013KT 2SM -SN BR OVC007 M06/M08 A2976 RMK AO2 UPE0059SNB0059 CIG 005V007
Conditions at: KAFF (USAF ACADEMY/COS, CO, US) observed 0108 UTC 04 March 2015
Temperature: -6.0°C (21°F)
Dewpoint: -8.0°C (18°F) [RH = 86%]
Pressure (altimeter): 29.76 inches Hg (1007.9 mb)
Winds: from the S (170 degrees) at 15 MPH (13 knots; 6.8 m/s)
Visibility: 2.00 miles (3.22 km)
Ceiling: 700 feet AGL
Clouds: overcast cloud deck at 700 feet AGL
Weather: -SN BR  (light snow, mist)

METAR text: KAFF 040103Z AUTO 17014KT 1 3/4SM -SN BR OVC005 M06/M08 A2976 RMK AO2 UPE0059SNB0059 CIG 005V008
Conditions at: KAFF (USAF ACADEMY/COS, CO, US) observed 0103 UTC 04 March 2015
Temperature: -6.0°C (21°F)
Dewpoint: -8.0°C (18°F) [RH = 86%]
Pressure (altimeter): 29.76 inches Hg (1007.9 mb)
Winds: from the S (170 degrees) at 16 MPH (14 knots; 7.3 m/s)
Visibility: 1.75 miles (2.82 km)
Ceiling: 500 feet AGL
Clouds: overcast cloud deck at 500 feet AGL
Weather: -SN BR  (light snow, mist)

METAR text: KAFF 040058Z AUTO 18012KT 2SM UP BR OVC006 M06/M07 A2976 RMK AO2 VIS 2V2 1/2 UPB12 CIG 006V009 SLP111 P0000
Conditions at: KAFF (USAF ACADEMY/COS, CO, US) observed 0058 UTC 04 March 2015
Temperature: -6.0°C (21°F)
Dewpoint: -7.0°C (19°F) [RH = 93%]
Pressure (altimeter): 29.76 inches Hg (1007.9 mb[Sea-level pressure: 1011.1 mb]
Winds: from the S (180 degrees) at 14 MPH (12 knots; 6.2 m/s)
Visibility: 2.00 miles (3.22 km)
Ceiling: 600 feet AGL
Clouds: overcast cloud deck at 600 feet AGL
Weather: BR UP  (mist, unknown precipitation)

METAR text: KAFF 040057Z AUTO 17011KT 2SM UP BR OVC006 M06/M07 A2976 RMK AO2 VIS 2V2 1/2 UPB12 CIG 006V009
Conditions at: KAFF (USAF ACADEMY/COS, CO, US) observed 0057 UTC 04 March 2015
Temperature: -6.0°C (21°F)
Dewpoint: -7.0°C (19°F) [RH = 93%]
Pressure (altimeter): 29.76 inches Hg (1007.9 mb)
Winds: from the S (170 degrees) at 13 MPH (11 knots; 5.7 m/s)
Visibility: 2.00 miles (3.22 km)
Ceiling: 600 feet AGL
Clouds: overcast cloud deck at 600 feet AGL
Weather: BR UP  (mist, unknown precipitation)

METAR text: KAFF 040047Z AUTO 17011KT 2SM UP BR OVC009 M06/M07 A2975 RMK AO2 UPB12 OVC V BKN
Conditions at: KAFF (USAF ACADEMY/COS, CO, US) observed 0047 UTC 04 March 2015
Temperature: -6.0°C (21°F)
Dewpoint: -7.0°C (19°F) [RH = 93%]
Pressure (altimeter): 29.75 inches Hg (1007.5 mb)
Winds: from the S (170 degrees) at 13 MPH (11 knots; 5.7 m/s)
Visibility: 2.00 miles (3.22 km)
Ceiling: 900 feet AGL
Clouds: overcast cloud deck at 900 feet AGL
Weather: BR UP  (mist, unknown precipitation)

METAR text: KAFF 040042Z AUTO 17013KT 1 3/4SM UP BR OVC009 M06/M08 A2975 RMK AO2 VIS 1 3/4V2 1/2 UPB12 CIG 009V012 OVC V BKN
Conditions at: KAFF (USAF ACADEMY/COS, CO, US) observed 0042 UTC 04 March 2015
Temperature: -6.0°C (21°F)
Dewpoint: -8.0°C (18°F) [RH = 86%]
Pressure (altimeter): 29.75 inches Hg (1007.5 mb)
Winds: from the S (170 degrees) at 15 MPH (13 knots; 6.8 m/s)
Visibility: 1.75 miles (2.82 km)
Ceiling: 900 feet AGL
Clouds: overcast cloud deck at 900 feet AGL
Weather: BR UP  (mist, unknown precipitation)

METAR text: KAFF 040037Z AUTO 17012KT 1 3/4SM UP BR OVC010 M05/M08 A2975 RMK AO2 VIS 1 3/4V5 UPB12 CIG 010V015
Conditions at: KAFF (USAF ACADEMY/COS, CO, US) observed 0037 UTC 04 March 2015
Temperature: -5.0°C (23°F)
Dewpoint: -8.0°C (18°F) [RH = 79%]
Pressure (altimeter): 29.75 inches Hg (1007.5 mb)
Winds: from the S (170 degrees) at 14 MPH (12 knots; 6.2 m/s)
Visibility: 1.75 miles (2.82 km)
Ceiling: 1000 feet AGL
Clouds: overcast cloud deck at 1000 feet AGL
Weather: BR UP  (mist, unknown precipitation)

METAR text: KAFF 040032Z AUTO 16011KT 2 1/2SM UP OVC012 M05/M08 A2975 RMK AO2 VIS 2 1/2V7 UPB12
Conditions at: KAFF (USAF ACADEMY/COS, CO, US) observed 0032 UTC 04 March 2015
Temperature: -5.0°C (23°F)
Dewpoint: -8.0°C (18°F) [RH = 79%]
Pressure (altimeter): 29.75 inches Hg (1007.5 mb)
Winds: from the SSE (160 degrees) at 13 MPH (11 knots; 5.7 m/s)
Visibility: 2.50 miles (4.02 km)
Ceiling: 1200 feet AGL
Clouds: overcast cloud deck at 1200 feet AGL
Weather: UP  (unknown precipitation)

METAR text: KAFF 040027Z AUTO 17011KT 5SM UP OVC015 M05/M08 A2975 RMK AO2 UPB12
Conditions at: KAFF (USAF ACADEMY/COS, CO, US) observed 0027 UTC 04 March 2015
Temperature: -5.0°C (23°F)
Dewpoint: -8.0°C (18°F) [RH = 79%]
Pressure (altimeter): 29.75 inches Hg (1007.5 mb)
Winds: from the S (170 degrees) at 13 MPH (11 knots; 5.7 m/s)
Visibility: 5 miles (8 km)
Ceiling: 1500 feet AGL
Clouds: overcast cloud deck at 1500 feet AGL
Weather: UP  (unknown precipitation)

METAR text: KAFF 040012Z AUTO 16009KT 10SM UP OVC014 M05/M08 A2975 RMK AO2 UPB12
Conditions at: KAFF (USAF ACADEMY/COS, CO, US) observed 0012 UTC 04 March 2015
Temperature: -5.0°C (23°F)
Dewpoint: -8.0°C (18°F) [RH = 79%]
Pressure (altimeter): 29.75 inches Hg (1007.5 mb)
Winds: from the SSE (160 degrees) at 10 MPH (9 knots; 4.7 m/s)
Visibility: 10 or more miles (16+ km)
Ceiling: 1400 feet AGL
Clouds: overcast cloud deck at 1400 feet AGL
Weather: UP  (unknown precipitation)

METAR text: KAFF 040003Z AUTO 15007KT 10SM OVC014 M05/M08 A2974 RMK AO2
Conditions at: KAFF (USAF ACADEMY/COS, CO, US) observed 0003 UTC 04 March 2015
Temperature: -5.0°C (23°F)
Dewpoint: -8.0°C (18°F) [RH = 79%]
Pressure (altimeter): 29.74 inches Hg (1007.2 mb)
Winds: from the SSE (150 degrees) at 8 MPH (7 knots; 3.6 m/s)
Visibility: 10 or more miles (16+ km)
Ceiling: 1400 feet AGL
Clouds: overcast cloud deck at 1400 feet AGL
Weather: automated observation with no human augmentation;
there may or may not be significant weather present at this time

METAR text: KAFF 032358Z 17006KT 10SM OVC015 M05/M08 A2974 RMK AO2A SLP098 60000 4/005 T10511083 11044 21053 53001
Conditions at: KAFF (USAF ACADEMY/COS, CO, US) observed 2358 UTC 03 March 2015
Temperature: -5.1°C (23°F)
Dewpoint: -8.3°C (17°F) [RH = 78%]
Pressure (altimeter): 29.74 inches Hg (1007.2 mb[Sea-level pressure: 1009.8 mb]
Winds: from the S (170 degrees) at 7 MPH (6 knots; 3.1 m/s)
Visibility: 10 or more miles (16+ km)
Ceiling: 1500 feet AGL
Clouds: overcast cloud deck at 1500 feet AGL
Weather: no significant weather observed at this time

METAR text: KAFF 032313Z AUTO 13005KT 10SM OVC015 M05/M09 A2974 RMK AO2
Conditions at: KAFF (USAF ACADEMY/COS, CO, US) observed 2313 UTC 03 March 2015
Temperature: -5.0°C (23°F)
Dewpoint: -9.0°C (16°F) [RH = 73%]
Pressure (altimeter): 29.74 inches Hg (1007.2 mb)
Winds: from the SE (130 degrees) at 6 MPH (5 knots; 2.6 m/s)
Visibility: 10 or more miles (16+ km)
Ceiling: 1500 feet AGL
Clouds: overcast cloud deck at 1500 feet AGL
Weather: automated observation with no human augmentation;
there may or may not be significant weather present at this time

METAR text: KAFF 032258Z AUTO 12007KT 10SM OVC014 M05/M08 A2973 RMK AO2 SLP094 T10521083
Conditions at: KAFF (USAF ACADEMY/COS, CO, US) observed 2258 UTC 03 March 2015
Temperature: -5.2°C (23°F)
Dewpoint: -8.3°C (17°F) [RH = 79%]
Pressure (altimeter): 29.73 inches Hg (1006.9 mb[Sea-level pressure: 1009.4 mb]
Winds: from the ESE (120 degrees) at 8 MPH (7 knots; 3.6 m/s)
Visibility: 10 or more miles (16+ km)
Ceiling: 1400 feet AGL
Clouds: overcast cloud deck at 1400 feet AGL
Weather: automated observation with no human augmentation;
there may or may not be significant weather present at this time

METAR text: KAFF 032248Z AUTO 11008KT 10SM OVC014 M05/M08 A2973 RMK AO2
Conditions at: KAFF (USAF ACADEMY/COS, CO, US) observed 2248 UTC 03 March 2015
Temperature: -5.0°C (23°F)
Dewpoint: -8.0°C (18°F) [RH = 79%]
Pressure (altimeter): 29.73 inches Hg (1006.9 mb)
Winds: from the ESE (110 degrees) at 9 MPH (8 knots; 4.2 m/s)
Visibility: 10 or more miles (16+ km)
Ceiling: 1400 feet AGL
Clouds: overcast cloud deck at 1400 feet AGL
Weather: automated observation with no human augmentation;
there may or may not be significant weather present at this time